<?xml version="1.0" encoding="UTF-8"?>
<gpx version="1.1" creator="2bulu-scraper" xmlns="http://www.topografix.com/GPX/1/1">
  <metadata><name>凌霄城经典15公里路线（优化版）</name><desc>source: 2bulu.com trackId=78589214; exported 2026-08-30T14:28:06.242Z</desc></metadata>
  <wpt lat="28.2958837" lon="105.0328672"><ele>384</ele><name>村公所为起点
        </name></wpt>
  <wpt lat="28.2858743" lon="105.0343948"><ele>460</ele><name>枷柦洞
        </name></wpt>
  <wpt lat="28.286682" lon="105.0352185"><ele>476</ele><name>枷柦洞
        </name></wpt>
  <wpt lat="28.2766114" lon="105.0462799"><ele>424</ele><name>龙潭池
        </name></wpt>
  <wpt lat="28.2765166" lon="105.0462651"><ele>428</ele><name>
        </name></wpt>
  <wpt lat="28.2749466" lon="105.0451432"><ele>440</ele><name>桫椤谷
        </name></wpt>
  <wpt lat="28.2717941" lon="105.0456943"><ele>465</ele><name>龙潭瀑布
        </name></wpt>
  <wpt lat="28.2709463" lon="105.0447202"><ele>606</ele><name>走房屋旁边小路
        </name></wpt>
  <wpt lat="28.27269" lon="105.0433558"><ele>599</ele><name>穿过院子，记得关院门
        </name></wpt>
  <wpt lat="28.2883278" lon="105.0393604"><ele>398</ele><name>从房屋背后绕路过
        </name></wpt>
  <wpt lat="28.2881125" lon="105.0393324"><ele>402</ele><name>也可以从这进房屋穿过
        </name></wpt>
  <wpt lat="28.282755" lon="105.0427603"><ele>388</ele><name>过小溪右转走竹林
        </name></wpt>
  <wpt lat="28.2820016" lon="105.0424247"><ele>403</ele><name>穿过竹林
        </name></wpt>
  <wpt lat="28.2811891" lon="105.0431233"><ele>424</ele><name>分路走小路
        </name></wpt>
  <wpt lat="28.2779665" lon="105.046692"><ele>424</ele><name>过小溪
        </name></wpt>
  <wpt lat="28.277188" lon="105.0469841"><ele>427</ele><name>过小溪
        </name></wpt>
  <trk><name>凌霄城经典15公里路线（优化版）</name>
      <trkseg>
        <trkpt lat="28.2958837" lon="105.0328672"><ele>383.74</ele><time>2026-01-29T18:47:30.000Z</time></trkpt>
        <trkpt lat="28.2958814" lon="105.0329576"><ele>383.74</ele><time>2026-01-29T18:47:45.000Z</time></trkpt>
        <trkpt lat="28.2958715" lon="105.0330595"><ele>383.69</ele><time>2026-01-29T18:47:52.000Z</time></trkpt>
        <trkpt lat="28.2958725" lon="105.033172"><ele>382.95</ele><time>2026-01-29T18:48:00.000Z</time></trkpt>
        <trkpt lat="28.2958606" lon="105.033282"><ele>382.25</ele><time>2026-01-29T18:48:09.000Z</time></trkpt>
        <trkpt lat="28.2958395" lon="105.0333963"><ele>381.89</ele><time>2026-01-29T18:48:17.000Z</time></trkpt>
        <trkpt lat="28.2958108" lon="105.0335022"><ele>381.54</ele><time>2026-01-29T18:48:24.000Z</time></trkpt>
        <trkpt lat="28.2957714" lon="105.0336113"><ele>381.13</ele><time>2026-01-29T18:48:31.000Z</time></trkpt>
        <trkpt lat="28.2957121" lon="105.0336952"><ele>380.6</ele><time>2026-01-29T18:48:39.000Z</time></trkpt>
        <trkpt lat="28.2956251" lon="105.0337227"><ele>380.11</ele><time>2026-01-29T18:48:51.000Z</time></trkpt>
        <trkpt lat="28.2955412" lon="105.0337641"><ele>379.61</ele><time>2026-01-29T18:48:58.000Z</time></trkpt>
        <trkpt lat="28.2954575" lon="105.03381"><ele>379.11</ele><time>2026-01-29T18:49:11.000Z</time></trkpt>
        <trkpt lat="28.2953675" lon="105.0338486"><ele>378.09</ele><time>2026-01-29T18:49:19.000Z</time></trkpt>
        <trkpt lat="28.2952709" lon="105.0338776"><ele>377.58</ele><time>2026-01-29T18:49:29.000Z</time></trkpt>
        <trkpt lat="28.2951866" lon="105.0339209"><ele>376.8</ele><time>2026-01-29T18:49:37.000Z</time></trkpt>
        <trkpt lat="28.2951011" lon="105.0339718"><ele>376.18</ele><time>2026-01-29T18:49:48.000Z</time></trkpt>
        <trkpt lat="28.2950714" lon="105.0340067"><ele>375</ele><time>2026-01-29T18:50:03.000Z</time></trkpt>
        <trkpt lat="28.2950293" lon="105.0340796"><ele>373.96</ele><time>2026-01-29T18:50:26.000Z</time></trkpt>
        <trkpt lat="28.2949673" lon="105.0341495"><ele>373.1</ele><time>2026-01-29T18:50:35.000Z</time></trkpt>
        <trkpt lat="28.2949223" lon="105.0340922"><ele>372.81</ele><time>2026-01-29T18:50:49.000Z</time></trkpt>
        <trkpt lat="28.294885" lon="105.033985"><ele>372.55</ele><time>2026-01-29T18:50:58.000Z</time></trkpt>
        <trkpt lat="28.2948113" lon="105.0339126"><ele>372.11</ele><time>2026-01-29T18:51:19.000Z</time></trkpt>
        <trkpt lat="28.2947268" lon="105.0339301"><ele>371.46</ele><time>2026-01-29T18:51:26.000Z</time></trkpt>
        <trkpt lat="28.2946404" lon="105.0339874"><ele>371.26</ele><time>2026-01-29T18:51:35.000Z</time></trkpt>
        <trkpt lat="28.2945523" lon="105.0340424"><ele>371.1</ele><time>2026-01-29T18:51:43.000Z</time></trkpt>
        <trkpt lat="28.2944648" lon="105.0340961"><ele>370.5</ele><time>2026-01-29T18:51:50.000Z</time></trkpt>
        <trkpt lat="28.2943769" lon="105.0341451"><ele>370.44</ele><time>2026-01-29T18:51:57.000Z</time></trkpt>
        <trkpt lat="28.2943386" lon="105.0342326"><ele>370.61</ele><time>2026-01-29T18:52:09.000Z</time></trkpt>
        <trkpt lat="28.2943771" lon="105.0343196"><ele>370.94</ele><time>2026-01-29T18:52:17.000Z</time></trkpt>
        <trkpt lat="28.2944331" lon="105.0344215"><ele>371.23</ele><time>2026-01-29T18:52:25.000Z</time></trkpt>
        <trkpt lat="28.2944488" lon="105.0345364"><ele>371.69</ele><time>2026-01-29T18:52:34.000Z</time></trkpt>
        <trkpt lat="28.2944448" lon="105.0346453"><ele>371.77</ele><time>2026-01-29T18:52:40.000Z</time></trkpt>
        <trkpt lat="28.2944393" lon="105.0347574"><ele>372</ele><time>2026-01-29T18:52:46.000Z</time></trkpt>
        <trkpt lat="28.294401" lon="105.0348519"><ele>372.47</ele><time>2026-01-29T18:52:57.000Z</time></trkpt>
        <trkpt lat="28.2943169" lon="105.0348563"><ele>373.64</ele><time>2026-01-29T18:53:05.000Z</time></trkpt>
        <trkpt lat="28.2942279" lon="105.0348885"><ele>374.29</ele><time>2026-01-29T18:53:15.000Z</time></trkpt>
        <trkpt lat="28.2941684" lon="105.034971"><ele>374.73</ele><time>2026-01-29T18:53:24.000Z</time></trkpt>
        <trkpt lat="28.2940823" lon="105.034983"><ele>373.35</ele><time>2026-01-29T18:53:32.000Z</time></trkpt>
        <trkpt lat="28.2940524" lon="105.0350695"><ele>372.74</ele><time>2026-01-29T18:53:41.000Z</time></trkpt>
        <trkpt lat="28.2940249" lon="105.035168"><ele>374.17</ele><time>2026-01-29T18:53:48.000Z</time></trkpt>
        <trkpt lat="28.2939745" lon="105.0352646"><ele>372.85</ele><time>2026-01-29T18:53:56.000Z</time></trkpt>
        <trkpt lat="28.2939287" lon="105.0353648"><ele>374.4</ele><time>2026-01-29T18:54:09.000Z</time></trkpt>
        <trkpt lat="28.2939018" lon="105.0354671"><ele>374.41</ele><time>2026-01-29T18:54:18.000Z</time></trkpt>
        <trkpt lat="28.2938658" lon="105.0355704"><ele>374.14</ele><time>2026-01-29T18:54:27.000Z</time></trkpt>
        <trkpt lat="28.2938685" lon="105.0356774"><ele>373.35</ele><time>2026-01-29T18:54:36.000Z</time></trkpt>
        <trkpt lat="28.2939011" lon="105.0357852"><ele>372.53</ele><time>2026-01-29T18:54:45.000Z</time></trkpt>
        <trkpt lat="28.2939162" lon="105.0358975"><ele>371.72</ele><time>2026-01-29T18:54:53.000Z</time></trkpt>
        <trkpt lat="28.2939339" lon="105.0360028"><ele>371.41</ele><time>2026-01-29T18:55:01.000Z</time></trkpt>
        <trkpt lat="28.2939816" lon="105.036091"><ele>371.21</ele><time>2026-01-29T18:55:10.000Z</time></trkpt>
        <trkpt lat="28.2939572" lon="105.0361723"><ele>371.25</ele><time>2026-01-29T18:55:17.000Z</time></trkpt>
        <trkpt lat="28.2939406" lon="105.0362696"><ele>371.24</ele><time>2026-01-29T18:55:26.000Z</time></trkpt>
        <trkpt lat="28.2939699" lon="105.0363644"><ele>371.04</ele><time>2026-01-29T18:55:54.000Z</time></trkpt>
        <trkpt lat="28.2939404" lon="105.0364617"><ele>371.65</ele><time>2026-01-29T18:56:02.000Z</time></trkpt>
        <trkpt lat="28.2938581" lon="105.0365251"><ele>372.03</ele><time>2026-01-29T18:56:08.000Z</time></trkpt>
        <trkpt lat="28.2937637" lon="105.0365858"><ele>372.25</ele><time>2026-01-29T18:56:14.000Z</time></trkpt>
        <trkpt lat="28.2936874" lon="105.0366561"><ele>372.53</ele><time>2026-01-29T18:56:25.000Z</time></trkpt>
        <trkpt lat="28.2936041" lon="105.0366452"><ele>373.18</ele><time>2026-01-29T18:56:33.000Z</time></trkpt>
        <trkpt lat="28.2935004" lon="105.036587"><ele>374.81</ele><time>2026-01-29T18:56:41.000Z</time></trkpt>
        <trkpt lat="28.2934025" lon="105.0365457"><ele>375.64</ele><time>2026-01-29T18:56:49.000Z</time></trkpt>
        <trkpt lat="28.2932895" lon="105.0365301"><ele>376.35</ele><time>2026-01-29T18:56:59.000Z</time></trkpt>
        <trkpt lat="28.2932228" lon="105.0364576"><ele>377.19</ele><time>2026-01-29T18:57:14.000Z</time></trkpt>
        <trkpt lat="28.2931474" lon="105.0363848"><ele>377.26</ele><time>2026-01-29T18:57:23.000Z</time></trkpt>
        <trkpt lat="28.2930617" lon="105.0363519"><ele>376.45</ele><time>2026-01-29T18:57:31.000Z</time></trkpt>
        <trkpt lat="28.2929677" lon="105.0363526"><ele>375.32</ele><time>2026-01-29T18:57:37.000Z</time></trkpt>
        <trkpt lat="28.2928709" lon="105.0363685"><ele>376.24</ele><time>2026-01-29T18:57:45.000Z</time></trkpt>
        <trkpt lat="28.2927643" lon="105.0363938"><ele>374.82</ele><time>2026-01-29T18:57:53.000Z</time></trkpt>
        <trkpt lat="28.2926678" lon="105.03642"><ele>374.29</ele><time>2026-01-29T18:58:01.000Z</time></trkpt>
        <trkpt lat="28.2925777" lon="105.0364435"><ele>373.79</ele><time>2026-01-29T18:58:08.000Z</time></trkpt>
        <trkpt lat="28.2924851" lon="105.0364651"><ele>373.36</ele><time>2026-01-29T18:58:17.000Z</time></trkpt>
        <trkpt lat="28.2923931" lon="105.0364816"><ele>372.64</ele><time>2026-01-29T18:58:24.000Z</time></trkpt>
        <trkpt lat="28.2923001" lon="105.0365175"><ele>372.21</ele><time>2026-01-29T18:58:31.000Z</time></trkpt>
        <trkpt lat="28.2922077" lon="105.036551"><ele>372.12</ele><time>2026-01-29T18:58:38.000Z</time></trkpt>
        <trkpt lat="28.2921192" lon="105.0365878"><ele>373.99</ele><time>2026-01-29T18:58:47.000Z</time></trkpt>
        <trkpt lat="28.2920321" lon="105.0366391"><ele>372.82</ele><time>2026-01-29T18:58:55.000Z</time></trkpt>
        <trkpt lat="28.2919433" lon="105.0366857"><ele>371.81</ele><time>2026-01-29T18:59:04.000Z</time></trkpt>
        <trkpt lat="28.2918538" lon="105.0367198"><ele>370.68</ele><time>2026-01-29T18:59:11.000Z</time></trkpt>
        <trkpt lat="28.2917588" lon="105.036736"><ele>370.1</ele><time>2026-01-29T18:59:20.000Z</time></trkpt>
        <trkpt lat="28.2916672" lon="105.0367736"><ele>369.74</ele><time>2026-01-29T18:59:29.000Z</time></trkpt>
        <trkpt lat="28.2915559" lon="105.0368133"><ele>375.25</ele><time>2026-01-29T18:59:38.000Z</time></trkpt>
        <trkpt lat="28.2914483" lon="105.0368394"><ele>378.81</ele><time>2026-01-29T18:59:44.000Z</time></trkpt>
        <trkpt lat="28.2913501" lon="105.0368516"><ele>379.45</ele><time>2026-01-29T18:59:56.000Z</time></trkpt>
        <trkpt lat="28.2913218" lon="105.0368588"><ele>379.38</ele><time>2026-01-29T18:59:57.000Z</time></trkpt>
        <trkpt lat="28.2912564" lon="105.0368899"><ele>375.63</ele><time>2026-01-29T19:00:03.000Z</time></trkpt>
        <trkpt lat="28.2911738" lon="105.03692"><ele>373.69</ele><time>2026-01-29T19:00:11.000Z</time></trkpt>
        <trkpt lat="28.2910936" lon="105.0369907"><ele>372.34</ele><time>2026-01-29T19:00:19.000Z</time></trkpt>
        <trkpt lat="28.291042" lon="105.0370623"><ele>375.45</ele><time>2026-01-29T19:00:22.000Z</time></trkpt>
        <trkpt lat="28.2910001" lon="105.037097"><ele>376.17</ele><time>2026-01-29T19:00:31.000Z</time></trkpt>
        <trkpt lat="28.2909652" lon="105.0371824"><ele>372.98</ele><time>2026-01-29T19:00:41.000Z</time></trkpt>
        <trkpt lat="28.2909504" lon="105.0372876"><ele>371.52</ele><time>2026-01-29T19:00:55.000Z</time></trkpt>
        <trkpt lat="28.2909608" lon="105.0374023"><ele>372.43</ele><time>2026-01-29T19:01:04.000Z</time></trkpt>
        <trkpt lat="28.2909922" lon="105.0375164"><ele>373.88</ele><time>2026-01-29T19:01:14.000Z</time></trkpt>
        <trkpt lat="28.2910192" lon="105.0376245"><ele>374.61</ele><time>2026-01-29T19:01:21.000Z</time></trkpt>
        <trkpt lat="28.2910314" lon="105.0377385"><ele>375.43</ele><time>2026-01-29T19:01:30.000Z</time></trkpt>
        <trkpt lat="28.2910501" lon="105.0378472"><ele>376.35</ele><time>2026-01-29T19:01:37.000Z</time></trkpt>
        <trkpt lat="28.2910371" lon="105.0379579"><ele>377.77</ele><time>2026-01-29T19:01:49.000Z</time></trkpt>
        <trkpt lat="28.2910318" lon="105.0380679"><ele>378.74</ele><time>2026-01-29T19:01:57.000Z</time></trkpt>
        <trkpt lat="28.2910648" lon="105.0381691"><ele>379.13</ele><time>2026-01-29T19:02:03.000Z</time></trkpt>
        <trkpt lat="28.2910409" lon="105.0382668"><ele>379.24</ele><time>2026-01-29T19:02:12.000Z</time></trkpt>
        <trkpt lat="28.2909805" lon="105.038343"><ele>380.43</ele><time>2026-01-29T19:02:25.000Z</time></trkpt>
        <trkpt lat="28.2908886" lon="105.0383774"><ele>381.48</ele><time>2026-01-29T19:02:42.000Z</time></trkpt>
        <trkpt lat="28.2908518" lon="105.038469"><ele>382.16</ele><time>2026-01-29T19:08:13.000Z</time></trkpt>
        <trkpt lat="28.2907663" lon="105.0385116"><ele>379.95</ele><time>2026-01-29T19:08:29.000Z</time></trkpt>
        <trkpt lat="28.2907029" lon="105.0384466"><ele>378.69</ele><time>2026-01-29T19:08:56.000Z</time></trkpt>
        <trkpt lat="28.2906357" lon="105.0383749"><ele>378.67</ele><time>2026-01-29T19:09:06.000Z</time></trkpt>
        <trkpt lat="28.290549" lon="105.0383673"><ele>378.68</ele><time>2026-01-29T19:09:16.000Z</time></trkpt>
        <trkpt lat="28.2904849" lon="105.0383031"><ele>379.15</ele><time>2026-01-29T19:09:23.000Z</time></trkpt>
        <trkpt lat="28.2903946" lon="105.0382558"><ele>378.94</ele><time>2026-01-29T19:09:32.000Z</time></trkpt>
        <trkpt lat="28.2903643" lon="105.0381592"><ele>379.24</ele><time>2026-01-29T19:09:41.000Z</time></trkpt>
        <trkpt lat="28.2903631" lon="105.0380483"><ele>379.9</ele><time>2026-01-29T19:09:49.000Z</time></trkpt>
        <trkpt lat="28.2903578" lon="105.0379397"><ele>380.39</ele><time>2026-01-29T19:09:58.000Z</time></trkpt>
        <trkpt lat="28.290356" lon="105.037823"><ele>380.94</ele><time>2026-01-29T19:10:07.000Z</time></trkpt>
        <trkpt lat="28.2903573" lon="105.0377116"><ele>381.76</ele><time>2026-01-29T19:10:15.000Z</time></trkpt>
        <trkpt lat="28.2903373" lon="105.0376029"><ele>382.92</ele><time>2026-01-29T19:10:24.000Z</time></trkpt>
        <trkpt lat="28.290283" lon="105.0375201"><ele>384.16</ele><time>2026-01-29T19:10:33.000Z</time></trkpt>
        <trkpt lat="28.2901938" lon="105.037524"><ele>385.23</ele><time>2026-01-29T19:10:52.000Z</time></trkpt>
        <trkpt lat="28.2901075" lon="105.0374911"><ele>387.82</ele><time>2026-01-29T19:11:08.000Z</time></trkpt>
        <trkpt lat="28.290025" lon="105.0374428"><ele>391.07</ele><time>2026-01-29T19:11:23.000Z</time></trkpt>
        <trkpt lat="28.2899378" lon="105.0374025"><ele>394.73</ele><time>2026-01-29T19:11:37.000Z</time></trkpt>
        <trkpt lat="28.2898607" lon="105.0373327"><ele>398.96</ele><time>2026-01-29T19:12:18.000Z</time></trkpt>
        <trkpt lat="28.2897899" lon="105.0372484"><ele>402.97</ele><time>2026-01-29T19:12:35.000Z</time></trkpt>
        <trkpt lat="28.2897383" lon="105.0371568"><ele>407.1</ele><time>2026-01-29T19:12:48.000Z</time></trkpt>
        <trkpt lat="28.2896863" lon="105.0370731"><ele>411.82</ele><time>2026-01-29T19:14:05.000Z</time></trkpt>
        <trkpt lat="28.2896182" lon="105.036996"><ele>417.36</ele><time>2026-01-29T19:14:17.000Z</time></trkpt>
        <trkpt lat="28.289556" lon="105.0370493"><ele>420.22</ele><time>2026-01-29T19:14:39.000Z</time></trkpt>
        <trkpt lat="28.2894891" lon="105.0371173"><ele>425.24</ele><time>2026-01-29T19:14:52.000Z</time></trkpt>
        <trkpt lat="28.2894009" lon="105.0371429"><ele>430.54</ele><time>2026-01-29T19:15:05.000Z</time></trkpt>
        <trkpt lat="28.2893168" lon="105.0371129"><ele>435.45</ele><time>2026-01-29T19:15:24.000Z</time></trkpt>
        <trkpt lat="28.2892215" lon="105.0370964"><ele>440.8</ele><time>2026-01-29T19:15:57.000Z</time></trkpt>
        <trkpt lat="28.289132" lon="105.0370586"><ele>444.76</ele><time>2026-01-29T19:16:08.000Z</time></trkpt>
        <trkpt lat="28.2890398" lon="105.0370413"><ele>447.12</ele><time>2026-01-29T19:16:18.000Z</time></trkpt>
        <trkpt lat="28.2889491" lon="105.0370145"><ele>449.02</ele><time>2026-01-29T19:16:27.000Z</time></trkpt>
        <trkpt lat="28.2888618" lon="105.0369699"><ele>451.11</ele><time>2026-01-29T19:16:36.000Z</time></trkpt>
        <trkpt lat="28.2887824" lon="105.0369073"><ele>452.95</ele><time>2026-01-29T19:16:47.000Z</time></trkpt>
        <trkpt lat="28.2887257" lon="105.036825"><ele>454.91</ele><time>2026-01-29T19:16:58.000Z</time></trkpt>
        <trkpt lat="28.2886685" lon="105.0367376"><ele>456.95</ele><time>2026-01-29T19:17:08.000Z</time></trkpt>
        <trkpt lat="28.2886103" lon="105.0366533"><ele>459.6</ele><time>2026-01-29T19:17:21.000Z</time></trkpt>
        <trkpt lat="28.2885466" lon="105.0365721"><ele>462.12</ele><time>2026-01-29T19:17:33.000Z</time></trkpt>
        <trkpt lat="28.2884854" lon="105.0364912"><ele>463.96</ele><time>2026-01-29T19:17:43.000Z</time></trkpt>
        <trkpt lat="28.288412" lon="105.0364224"><ele>465.56</ele><time>2026-01-29T19:17:53.000Z</time></trkpt>
        <trkpt lat="28.2883171" lon="105.0363761"><ele>466.89</ele><time>2026-01-29T19:18:02.000Z</time></trkpt>
        <trkpt lat="28.2882158" lon="105.0363397"><ele>467.5</ele><time>2026-01-29T19:18:09.000Z</time></trkpt>
        <trkpt lat="28.2881119" lon="105.0363053"><ele>467.89</ele><time>2026-01-29T19:18:17.000Z</time></trkpt>
        <trkpt lat="28.2880221" lon="105.0362643"><ele>467.58</ele><time>2026-01-29T19:18:24.000Z</time></trkpt>
        <trkpt lat="28.2879421" lon="105.0362018"><ele>466.77</ele><time>2026-01-29T19:18:31.000Z</time></trkpt>
        <trkpt lat="28.2878608" lon="105.0361455"><ele>465.6</ele><time>2026-01-29T19:18:38.000Z</time></trkpt>
        <trkpt lat="28.287782" lon="105.0360931"><ele>464.28</ele><time>2026-01-29T19:18:46.000Z</time></trkpt>
        <trkpt lat="28.2876963" lon="105.0360408"><ele>462.7</ele><time>2026-01-29T19:18:56.000Z</time></trkpt>
        <trkpt lat="28.2876174" lon="105.0359846"><ele>460.73</ele><time>2026-01-29T19:19:04.000Z</time></trkpt>
        <trkpt lat="28.287536" lon="105.0359177"><ele>459.68</ele><time>2026-01-29T19:19:11.000Z</time></trkpt>
        <trkpt lat="28.287454" lon="105.0358443"><ele>458.6</ele><time>2026-01-29T19:19:20.000Z</time></trkpt>
        <trkpt lat="28.287368" lon="105.0357565"><ele>457.1</ele><time>2026-01-29T19:19:26.000Z</time></trkpt>
        <trkpt lat="28.2872823" lon="105.0356962"><ele>455.1</ele><time>2026-01-29T19:19:34.000Z</time></trkpt>
        <trkpt lat="28.2872034" lon="105.0356263"><ele>454.7</ele><time>2026-01-29T19:19:42.000Z</time></trkpt>
        <trkpt lat="28.2871255" lon="105.0355513"><ele>453.83</ele><time>2026-01-29T19:19:49.000Z</time></trkpt>
        <trkpt lat="28.2870523" lon="105.0354779"><ele>453.57</ele><time>2026-01-29T19:19:58.000Z</time></trkpt>
        <trkpt lat="28.2870055" lon="105.0354379"><ele>453.79</ele><time>2026-01-29T19:20:01.000Z</time></trkpt>
        <trkpt lat="28.2869538" lon="105.0353725"><ele>455.27</ele><time>2026-01-29T19:20:13.000Z</time></trkpt>
        <trkpt lat="28.2868721" lon="105.0353243"><ele>455.07</ele><time>2026-01-29T19:20:33.000Z</time></trkpt>
        <trkpt lat="28.2868005" lon="105.0352419"><ele>455.53</ele><time>2026-01-29T19:21:03.000Z</time></trkpt>
        <trkpt lat="28.2867107" lon="105.0351831"><ele>455.6</ele><time>2026-01-29T19:21:12.000Z</time></trkpt>
        <trkpt lat="28.2866428" lon="105.0351014"><ele>455.42</ele><time>2026-01-29T19:21:20.000Z</time></trkpt>
        <trkpt lat="28.2865465" lon="105.035094"><ele>455.31</ele><time>2026-01-29T19:21:29.000Z</time></trkpt>
        <trkpt lat="28.2864538" lon="105.0350698"><ele>455.37</ele><time>2026-01-29T19:21:44.000Z</time></trkpt>
        <trkpt lat="28.2863726" lon="105.0350223"><ele>455.65</ele><time>2026-01-29T19:22:29.000Z</time></trkpt>
        <trkpt lat="28.2863579" lon="105.0349189"><ele>455.59</ele><time>2026-01-29T19:22:36.000Z</time></trkpt>
        <trkpt lat="28.2863425" lon="105.0348076"><ele>454.85</ele><time>2026-01-29T19:22:51.000Z</time></trkpt>
        <trkpt lat="28.2862895" lon="105.0347167"><ele>454.73</ele><time>2026-01-29T19:23:09.000Z</time></trkpt>
        <trkpt lat="28.286227" lon="105.0346368"><ele>454.86</ele><time>2026-01-29T19:23:55.000Z</time></trkpt>
        <trkpt lat="28.286165" lon="105.0345568"><ele>455.65</ele><time>2026-01-29T19:24:02.000Z</time></trkpt>
        <trkpt lat="28.2860986" lon="105.0344844"><ele>456.06</ele><time>2026-01-29T19:24:23.000Z</time></trkpt>
        <trkpt lat="28.2860135" lon="105.0344269"><ele>457.08</ele><time>2026-01-29T19:24:56.000Z</time></trkpt>
        <trkpt lat="28.2859909" lon="105.0343013"><ele>457.56</ele><time>2026-01-29T19:25:00.000Z</time></trkpt>
        <trkpt lat="28.2859407" lon="105.034318"><ele>457.73</ele><time>2026-01-29T19:25:08.000Z</time></trkpt>
        <trkpt lat="28.2858743" lon="105.0343948"><ele>458.02</ele><time>2026-01-29T19:25:18.000Z</time></trkpt>
        <trkpt lat="28.2857875" lon="105.0344436"><ele>458.75</ele><time>2026-01-29T19:25:43.000Z</time></trkpt>
        <trkpt lat="28.2856848" lon="105.0344577"><ele>460.95</ele><time>2026-01-29T19:27:10.000Z</time></trkpt>
        <trkpt lat="28.2855978" lon="105.0344884"><ele>463.17</ele><time>2026-01-29T19:27:27.000Z</time></trkpt>
        <trkpt lat="28.2855129" lon="105.0345386"><ele>464.67</ele><time>2026-01-29T19:28:08.000Z</time></trkpt>
        <trkpt lat="28.2854213" lon="105.0345083"><ele>466.01</ele><time>2026-01-29T19:28:20.000Z</time></trkpt>
        <trkpt lat="28.2854302" lon="105.034394"><ele>466.81</ele><time>2026-01-29T19:29:14.000Z</time></trkpt>
        <trkpt lat="28.2854952" lon="105.0342852"><ele>467.91</ele><time>2026-01-29T19:29:17.000Z</time></trkpt>
        <trkpt lat="28.2856657" lon="105.0341715"><ele>468.31</ele><time>2026-01-29T19:29:21.000Z</time></trkpt>
        <trkpt lat="28.2858017" lon="105.0341321"><ele>468.43</ele><time>2026-01-29T19:29:25.000Z</time></trkpt>
        <trkpt lat="28.2859113" lon="105.0341368"><ele>468.61</ele><time>2026-01-29T19:29:34.000Z</time></trkpt>
        <trkpt lat="28.286007" lon="105.0341504"><ele>468.95</ele><time>2026-01-29T19:29:39.000Z</time></trkpt>
        <trkpt lat="28.2861099" lon="105.034164"><ele>469.61</ele><time>2026-01-29T19:29:43.000Z</time></trkpt>
        <trkpt lat="28.2862048" lon="105.0341597"><ele>470.49</ele><time>2026-01-29T19:29:54.000Z</time></trkpt>
        <trkpt lat="28.2862641" lon="105.0342309"><ele>471.39</ele><time>2026-01-29T19:30:28.000Z</time></trkpt>
        <trkpt lat="28.2863468" lon="105.0343176"><ele>472.05</ele><time>2026-01-29T19:30:35.000Z</time></trkpt>
        <trkpt lat="28.2864345" lon="105.034422"><ele>472.59</ele><time>2026-01-29T19:30:42.000Z</time></trkpt>
        <trkpt lat="28.2864833" lon="105.034526"><ele>473.53</ele><time>2026-01-29T19:30:48.000Z</time></trkpt>
        <trkpt lat="28.2865408" lon="105.0346113"><ele>474.53</ele><time>2026-01-29T19:31:01.000Z</time></trkpt>
        <trkpt lat="28.2865805" lon="105.0347121"><ele>475.51</ele><time>2026-01-29T19:31:15.000Z</time></trkpt>
        <trkpt lat="28.2866252" lon="105.0348085"><ele>477.76</ele><time>2026-01-29T19:31:22.000Z</time></trkpt>
        <trkpt lat="28.2866844" lon="105.0349039"><ele>479.07</ele><time>2026-01-29T19:31:29.000Z</time></trkpt>
        <trkpt lat="28.2867267" lon="105.0350078"><ele>478.84</ele><time>2026-01-29T19:31:41.000Z</time></trkpt>
        <trkpt lat="28.286736" lon="105.0351188"><ele>477.88</ele><time>2026-01-29T19:31:51.000Z</time></trkpt>
        <trkpt lat="28.286682" lon="105.0352185"><ele>476.74</ele><time>2026-01-29T19:31:55.000Z</time></trkpt>
        <trkpt lat="28.2867283" lon="105.0352774"><ele>476.34</ele><time>2026-01-29T19:32:56.000Z</time></trkpt>
        <trkpt lat="28.2866645" lon="105.0353631"><ele>477.22</ele><time>2026-01-29T19:33:32.000Z</time></trkpt>
        <trkpt lat="28.2865917" lon="105.0354347"><ele>478.04</ele><time>2026-01-29T19:33:43.000Z</time></trkpt>
        <trkpt lat="28.2865388" lon="105.0355207"><ele>478.58</ele><time>2026-01-29T19:33:54.000Z</time></trkpt>
        <trkpt lat="28.2865842" lon="105.0356164"><ele>479.25</ele><time>2026-01-29T19:34:54.000Z</time></trkpt>
        <trkpt lat="28.2866016" lon="105.0357265"><ele>480.44</ele><time>2026-01-29T19:35:06.000Z</time></trkpt>
        <trkpt lat="28.2866686" lon="105.0357919"><ele>480.58</ele><time>2026-01-29T19:35:20.000Z</time></trkpt>
        <trkpt lat="28.2867491" lon="105.0358375"><ele>480.82</ele><time>2026-01-29T19:35:47.000Z</time></trkpt>
        <trkpt lat="28.2867844" lon="105.0359393"><ele>481.15</ele><time>2026-01-29T19:35:52.000Z</time></trkpt>
        <trkpt lat="28.286795" lon="105.0360553"><ele>480.12</ele><time>2026-01-29T19:36:00.000Z</time></trkpt>
        <trkpt lat="28.2867909" lon="105.0361735"><ele>478.34</ele><time>2026-01-29T19:36:15.000Z</time></trkpt>
        <trkpt lat="28.2867944" lon="105.0362849"><ele>476.65</ele><time>2026-01-29T19:36:33.000Z</time></trkpt>
        <trkpt lat="28.2868011" lon="105.0363969"><ele>475.22</ele><time>2026-01-29T19:36:47.000Z</time></trkpt>
        <trkpt lat="28.2868388" lon="105.0364966"><ele>474.87</ele><time>2026-01-29T19:36:58.000Z</time></trkpt>
        <trkpt lat="28.2868901" lon="105.0365885"><ele>475.53</ele><time>2026-01-29T19:37:09.000Z</time></trkpt>
        <trkpt lat="28.2869363" lon="105.0366815"><ele>476.83</ele><time>2026-01-29T19:37:20.000Z</time></trkpt>
        <trkpt lat="28.2869601" lon="105.0367809"><ele>477.41</ele><time>2026-01-29T19:37:30.000Z</time></trkpt>
        <trkpt lat="28.2870192" lon="105.0368594"><ele>478.49</ele><time>2026-01-29T19:38:17.000Z</time></trkpt>
        <trkpt lat="28.2870923" lon="105.0369294"><ele>479.29</ele><time>2026-01-29T19:38:27.000Z</time></trkpt>
        <trkpt lat="28.2871619" lon="105.0369994"><ele>479.32</ele><time>2026-01-29T19:38:35.000Z</time></trkpt>
        <trkpt lat="28.2872444" lon="105.0370514"><ele>479.16</ele><time>2026-01-29T19:38:44.000Z</time></trkpt>
        <trkpt lat="28.2873218" lon="105.0371176"><ele>478.49</ele><time>2026-01-29T19:38:55.000Z</time></trkpt>
        <trkpt lat="28.2873947" lon="105.0371954"><ele>476.36</ele><time>2026-01-29T19:39:06.000Z</time></trkpt>
        <trkpt lat="28.2874849" lon="105.0372542"><ele>473.52</ele><time>2026-01-29T19:39:17.000Z</time></trkpt>
        <trkpt lat="28.2875692" lon="105.0373144"><ele>470.13</ele><time>2026-01-29T19:39:27.000Z</time></trkpt>
        <trkpt lat="28.2876451" lon="105.0373842"><ele>466.37</ele><time>2026-01-29T19:39:36.000Z</time></trkpt>
        <trkpt lat="28.2876979" lon="105.0374739"><ele>462.95</ele><time>2026-01-29T19:39:46.000Z</time></trkpt>
        <trkpt lat="28.2877551" lon="105.0375588"><ele>459.12</ele><time>2026-01-29T19:39:55.000Z</time></trkpt>
        <trkpt lat="28.2878158" lon="105.0376432"><ele>456.51</ele><time>2026-01-29T19:40:04.000Z</time></trkpt>
        <trkpt lat="28.2878172" lon="105.0377425"><ele>453.87</ele><time>2026-01-29T19:40:32.000Z</time></trkpt>
      </trkseg>
      <trkseg>
        <trkpt lat="28.277158" lon="105.0469432"><ele>422.27</ele><time>2026-01-29T20:40:17.000Z</time></trkpt>
        <trkpt lat="28.2770586" lon="105.0469202"><ele>419.27</ele><time>2026-01-29T20:40:47.000Z</time></trkpt>
        <trkpt lat="28.276981" lon="105.0468454"><ele>418.21</ele><time>2026-01-29T20:40:54.000Z</time></trkpt>
        <trkpt lat="28.2769153" lon="105.0467579"><ele>417.6</ele><time>2026-01-29T20:40:59.000Z</time></trkpt>
        <trkpt lat="28.2768505" lon="105.0466728"><ele>417.4</ele><time>2026-01-29T20:41:05.000Z</time></trkpt>
        <trkpt lat="28.2767923" lon="105.0465877"><ele>417.18</ele><time>2026-01-29T20:41:12.000Z</time></trkpt>
        <trkpt lat="28.2767174" lon="105.0465257"><ele>416.77</ele><time>2026-01-29T20:41:20.000Z</time></trkpt>
        <trkpt lat="28.276626" lon="105.0465063"><ele>417.65</ele><time>2026-01-29T20:41:26.000Z</time></trkpt>
        <trkpt lat="28.2765555" lon="105.046438"><ele>427.2</ele><time>2026-01-29T20:41:38.000Z</time></trkpt>
        <trkpt lat="28.2765516" lon="105.046342"><ele>424.79</ele><time>2026-01-29T20:41:47.000Z</time></trkpt>
        <trkpt lat="28.2765136" lon="105.0462544"><ele>423.49</ele><time>2026-01-29T20:46:18.000Z</time></trkpt>
        <trkpt lat="28.2764283" lon="105.0461819"><ele>425.81</ele><time>2026-01-29T20:46:31.000Z</time></trkpt>
        <trkpt lat="28.27634" lon="105.0461408"><ele>426.63</ele><time>2026-01-29T20:47:05.000Z</time></trkpt>
        <trkpt lat="28.2762488" lon="105.0461151"><ele>427.56</ele><time>2026-01-29T20:47:25.000Z</time></trkpt>
        <trkpt lat="28.276174" lon="105.0460595"><ele>428.47</ele><time>2026-01-29T20:47:39.000Z</time></trkpt>
        <trkpt lat="28.2760983" lon="105.0460042"><ele>429.25</ele><time>2026-01-29T20:47:50.000Z</time></trkpt>
        <trkpt lat="28.2760184" lon="105.0459467"><ele>430</ele><time>2026-01-29T20:47:59.000Z</time></trkpt>
        <trkpt lat="28.275932" lon="105.045956"><ele>430.37</ele><time>2026-01-29T20:48:11.000Z</time></trkpt>
        <trkpt lat="28.2758367" lon="105.0459469"><ele>430.58</ele><time>2026-01-29T20:48:28.000Z</time></trkpt>
        <trkpt lat="28.2757664" lon="105.0458824"><ele>430.46</ele><time>2026-01-29T20:48:39.000Z</time></trkpt>
        <trkpt lat="28.2757086" lon="105.0457991"><ele>430.26</ele><time>2026-01-29T20:48:49.000Z</time></trkpt>
        <trkpt lat="28.275696" lon="105.0456855"><ele>431.13</ele><time>2026-01-29T20:49:11.000Z</time></trkpt>
        <trkpt lat="28.2756636" lon="105.045579"><ele>431.55</ele><time>2026-01-29T20:49:16.000Z</time></trkpt>
        <trkpt lat="28.2756324" lon="105.0454856"><ele>431.96</ele><time>2026-01-29T20:49:47.000Z</time></trkpt>
        <trkpt lat="28.2755584" lon="105.0454348"><ele>433.46</ele><time>2026-01-29T20:50:02.000Z</time></trkpt>
        <trkpt lat="28.2754662" lon="105.0454133"><ele>435.44</ele><time>2026-01-29T20:50:19.000Z</time></trkpt>
        <trkpt lat="28.275364" lon="105.0454425"><ele>436.43</ele><time>2026-01-29T20:50:26.000Z</time></trkpt>
        <trkpt lat="28.2752698" lon="105.045416"><ele>437.09</ele><time>2026-01-29T20:50:33.000Z</time></trkpt>
        <trkpt lat="28.2751991" lon="105.0454137"><ele>437.29</ele><time>2026-01-29T20:50:41.000Z</time></trkpt>
        <trkpt lat="28.2751086" lon="105.0453992"><ele>437.35</ele><time>2026-01-29T20:50:48.000Z</time></trkpt>
        <trkpt lat="28.2750563" lon="105.0453231"><ele>437.48</ele><time>2026-01-29T20:50:55.000Z</time></trkpt>
        <trkpt lat="28.2750102" lon="105.0452254"><ele>437.74</ele><time>2026-01-29T20:51:17.000Z</time></trkpt>
        <trkpt lat="28.2749466" lon="105.0451432"><ele>438.35</ele><time>2026-01-29T20:51:28.000Z</time></trkpt>
        <trkpt lat="28.2748671" lon="105.0450892"><ele>438.87</ele><time>2026-01-29T20:51:45.000Z</time></trkpt>
        <trkpt lat="28.2747921" lon="105.0450255"><ele>439.89</ele><time>2026-01-29T20:51:54.000Z</time></trkpt>
        <trkpt lat="28.2746988" lon="105.0449964"><ele>440.38</ele><time>2026-01-29T20:52:03.000Z</time></trkpt>
        <trkpt lat="28.2746139" lon="105.0449499"><ele>440.86</ele><time>2026-01-29T20:52:14.000Z</time></trkpt>
        <trkpt lat="28.2745241" lon="105.0449115"><ele>442.03</ele><time>2026-01-29T20:52:25.000Z</time></trkpt>
        <trkpt lat="28.2744268" lon="105.0448905"><ele>443.28</ele><time>2026-01-29T20:52:36.000Z</time></trkpt>
        <trkpt lat="28.2743378" lon="105.0448531"><ele>444.32</ele><time>2026-01-29T20:52:45.000Z</time></trkpt>
        <trkpt lat="28.2742479" lon="105.0448727"><ele>445.01</ele><time>2026-01-29T20:52:57.000Z</time></trkpt>
        <trkpt lat="28.2742003" lon="105.0449156"><ele>445.27</ele><time>2026-01-29T20:53:23.000Z</time></trkpt>
        <trkpt lat="28.2741227" lon="105.0449298"><ele>446.09</ele><time>2026-01-29T20:53:54.000Z</time></trkpt>
        <trkpt lat="28.2740697" lon="105.0449213"><ele>446.52</ele><time>2026-01-29T20:53:59.000Z</time></trkpt>
        <trkpt lat="28.2739909" lon="105.0448948"><ele>446.98</ele><time>2026-01-29T20:54:20.000Z</time></trkpt>
        <trkpt lat="28.2739051" lon="105.044919"><ele>447.11</ele><time>2026-01-29T20:54:28.000Z</time></trkpt>
        <trkpt lat="28.2738282" lon="105.0449809"><ele>446.9</ele><time>2026-01-29T20:54:54.000Z</time></trkpt>
        <trkpt lat="28.2737399" lon="105.0450357"><ele>447.68</ele><time>2026-01-29T20:55:11.000Z</time></trkpt>
        <trkpt lat="28.2736767" lon="105.0451157"><ele>448.16</ele><time>2026-01-29T20:56:05.000Z</time></trkpt>
        <trkpt lat="28.2735965" lon="105.0451263"><ele>449.88</ele><time>2026-01-29T20:56:17.000Z</time></trkpt>
        <trkpt lat="28.2735078" lon="105.0451298"><ele>451.14</ele><time>2026-01-29T20:56:35.000Z</time></trkpt>
        <trkpt lat="28.2734161" lon="105.0451433"><ele>452.2</ele><time>2026-01-29T20:56:47.000Z</time></trkpt>
        <trkpt lat="28.2733104" lon="105.0451748"><ele>453.9</ele><time>2026-01-29T20:56:59.000Z</time></trkpt>
        <trkpt lat="28.273214" lon="105.0451817"><ele>455.53</ele><time>2026-01-29T20:57:15.000Z</time></trkpt>
        <trkpt lat="28.2731242" lon="105.0452097"><ele>457.89</ele><time>2026-01-29T20:58:31.000Z</time></trkpt>
        <trkpt lat="28.2730407" lon="105.0452502"><ele>459.19</ele><time>2026-01-29T20:58:40.000Z</time></trkpt>
        <trkpt lat="28.2729697" lon="105.0453142"><ele>460.04</ele><time>2026-01-29T20:59:13.000Z</time></trkpt>
        <trkpt lat="28.2728841" lon="105.0453431"><ele>460.89</ele><time>2026-01-29T20:59:20.000Z</time></trkpt>
        <trkpt lat="28.2727932" lon="105.0453634"><ele>461.21</ele><time>2026-01-29T20:59:30.000Z</time></trkpt>
        <trkpt lat="28.2726962" lon="105.0454104"><ele>460.8</ele><time>2026-01-29T20:59:39.000Z</time></trkpt>
        <trkpt lat="28.272609" lon="105.0454664"><ele>460.17</ele><time>2026-01-29T20:59:47.000Z</time></trkpt>
        <trkpt lat="28.2725233" lon="105.0455062"><ele>458.9</ele><time>2026-01-29T20:59:56.000Z</time></trkpt>
        <trkpt lat="28.2724795" lon="105.0455876"><ele>457.66</ele><time>2026-01-29T21:00:09.000Z</time></trkpt>
        <trkpt lat="28.2724074" lon="105.0456431"><ele>458.38</ele><time>2026-01-29T21:00:20.000Z</time></trkpt>
        <trkpt lat="28.2723476" lon="105.0457267"><ele>460.72</ele><time>2026-01-29T21:00:33.000Z</time></trkpt>
        <trkpt lat="28.2722654" lon="105.0457691"><ele>463.41</ele><time>2026-01-29T21:00:42.000Z</time></trkpt>
        <trkpt lat="28.2721694" lon="105.0457624"><ele>464.49</ele><time>2026-01-29T21:00:55.000Z</time></trkpt>
        <trkpt lat="28.2720734" lon="105.0457275"><ele>464.96</ele><time>2026-01-29T21:01:00.000Z</time></trkpt>
        <trkpt lat="28.2719738" lon="105.045722"><ele>465.21</ele><time>2026-01-29T21:01:06.000Z</time></trkpt>
        <trkpt lat="28.2718807" lon="105.0457291"><ele>465.35</ele><time>2026-01-29T21:01:12.000Z</time></trkpt>
        <trkpt lat="28.2717941" lon="105.0456943"><ele>465.48</ele><time>2026-01-29T21:01:27.000Z</time></trkpt>
        <trkpt lat="28.2717138" lon="105.0457243"><ele>465.19</ele><time>2026-01-29T21:03:07.000Z</time></trkpt>
        <trkpt lat="28.2717928" lon="105.0456707"><ele>465.12</ele><time>2026-01-29T21:04:22.000Z</time></trkpt>
        <trkpt lat="28.2717928" lon="105.0456707"><ele>465.12</ele><time>2026-01-29T21:04:34.000Z</time></trkpt>
      </trkseg>
      <trkseg>
        <trkpt lat="28.2718108" lon="105.0456069"><ele>465.48</ele><time>2026-01-29T21:18:04.000Z</time></trkpt>
        <trkpt lat="28.2718108" lon="105.0456069"><ele>465.48</ele><time>2026-01-29T21:18:07.000Z</time></trkpt>
        <trkpt lat="28.2719055" lon="105.0456177"><ele>480.28</ele><time>2026-01-29T21:18:17.000Z</time></trkpt>
        <trkpt lat="28.2720035" lon="105.0456304"><ele>489.35</ele><time>2026-01-29T21:18:26.000Z</time></trkpt>
        <trkpt lat="28.2720943" lon="105.0456483"><ele>495.09</ele><time>2026-01-29T21:18:33.000Z</time></trkpt>
        <trkpt lat="28.2721935" lon="105.0456453"><ele>498.96</ele><time>2026-01-29T21:18:45.000Z</time></trkpt>
        <trkpt lat="28.2723007" lon="105.0456555"><ele>501.65</ele><time>2026-01-29T21:18:54.000Z</time></trkpt>
        <trkpt lat="28.2723954" lon="105.0456304"><ele>502.85</ele><time>2026-01-29T21:19:11.000Z</time></trkpt>
        <trkpt lat="28.2724838" lon="105.0455899"><ele>503.44</ele><time>2026-01-29T21:19:20.000Z</time></trkpt>
        <trkpt lat="28.2725601" lon="105.0455286"><ele>503.82</ele><time>2026-01-29T21:19:35.000Z</time></trkpt>
        <trkpt lat="28.27264" lon="105.0454713"><ele>503.94</ele><time>2026-01-29T21:19:43.000Z</time></trkpt>
        <trkpt lat="28.2727222" lon="105.0454139"><ele>503.92</ele><time>2026-01-29T21:19:52.000Z</time></trkpt>
        <trkpt lat="28.272804" lon="105.0453538"><ele>504.21</ele><time>2026-01-29T21:20:01.000Z</time></trkpt>
        <trkpt lat="28.2728864" lon="105.0452998"><ele>504.07</ele><time>2026-01-29T21:20:08.000Z</time></trkpt>
        <trkpt lat="28.2729751" lon="105.0452602"><ele>504.08</ele><time>2026-01-29T21:20:16.000Z</time></trkpt>
        <trkpt lat="28.2730681" lon="105.0452668"><ele>503.82</ele><time>2026-01-29T21:20:27.000Z</time></trkpt>
        <trkpt lat="28.2731542" lon="105.0453205"><ele>503.47</ele><time>2026-01-29T21:20:39.000Z</time></trkpt>
        <trkpt lat="28.2732369" lon="105.0453946"><ele>503.2</ele><time>2026-01-29T21:20:48.000Z</time></trkpt>
        <trkpt lat="28.273317" lon="105.0454566"><ele>504.12</ele><time>2026-01-29T21:21:01.000Z</time></trkpt>
        <trkpt lat="28.2734" lon="105.0455157"><ele>506.39</ele><time>2026-01-29T21:21:15.000Z</time></trkpt>
        <trkpt lat="28.2734763" lon="105.0455904"><ele>509.25</ele><time>2026-01-29T21:21:42.000Z</time></trkpt>
        <trkpt lat="28.2735117" lon="105.0456896"><ele>512.66</ele><time>2026-01-29T21:22:13.000Z</time></trkpt>
        <trkpt lat="28.2735256" lon="105.0457979"><ele>517.44</ele><time>2026-01-29T21:22:26.000Z</time></trkpt>
        <trkpt lat="28.2735607" lon="105.0459025"><ele>522.5</ele><time>2026-01-29T21:22:41.000Z</time></trkpt>
        <trkpt lat="28.2736118" lon="105.045992"><ele>527.53</ele><time>2026-01-29T21:22:53.000Z</time></trkpt>
        <trkpt lat="28.2736925" lon="105.0460283"><ele>532.84</ele><time>2026-01-29T21:23:26.000Z</time></trkpt>
        <trkpt lat="28.2737873" lon="105.0460344"><ele>538.88</ele><time>2026-01-29T21:23:38.000Z</time></trkpt>
        <trkpt lat="28.2738841" lon="105.0460357"><ele>544.35</ele><time>2026-01-29T21:23:48.000Z</time></trkpt>
        <trkpt lat="28.2739824" lon="105.046072"><ele>549.05</ele><time>2026-01-29T21:23:59.000Z</time></trkpt>
        <trkpt lat="28.2740624" lon="105.0461351"><ele>552.74</ele><time>2026-01-29T21:24:10.000Z</time></trkpt>
        <trkpt lat="28.274085" lon="105.046234"><ele>555.49</ele><time>2026-01-29T21:24:21.000Z</time></trkpt>
        <trkpt lat="28.2740114" lon="105.0463366"><ele>557.79</ele><time>2026-01-29T21:25:52.000Z</time></trkpt>
        <trkpt lat="28.2739054" lon="105.046327"><ele>559.73</ele><time>2026-01-29T21:26:05.000Z</time></trkpt>
        <trkpt lat="28.273807" lon="105.0463178"><ele>560.84</ele><time>2026-01-29T21:26:13.000Z</time></trkpt>
        <trkpt lat="28.2737067" lon="105.0463113"><ele>561.73</ele><time>2026-01-29T21:26:23.000Z</time></trkpt>
        <trkpt lat="28.2736129" lon="105.0463135"><ele>562.49</ele><time>2026-01-29T21:26:33.000Z</time></trkpt>
        <trkpt lat="28.2735196" lon="105.0462942"><ele>563.41</ele><time>2026-01-29T21:26:43.000Z</time></trkpt>
        <trkpt lat="28.2734357" lon="105.0463241"><ele>564.75</ele><time>2026-01-29T21:26:55.000Z</time></trkpt>
        <trkpt lat="28.2733437" lon="105.0463441"><ele>566.32</ele><time>2026-01-29T21:27:13.000Z</time></trkpt>
        <trkpt lat="28.2732475" lon="105.04636"><ele>568.97</ele><time>2026-01-29T21:27:34.000Z</time></trkpt>
        <trkpt lat="28.2731616" lon="105.0464017"><ele>571.65</ele><time>2026-01-29T21:27:45.000Z</time></trkpt>
        <trkpt lat="28.2730722" lon="105.046405"><ele>573.75</ele><time>2026-01-29T21:28:04.000Z</time></trkpt>
        <trkpt lat="28.2729832" lon="105.0463909"><ele>575.53</ele><time>2026-01-29T21:28:14.000Z</time></trkpt>
        <trkpt lat="28.2728935" lon="105.0463586"><ele>577.56</ele><time>2026-01-29T21:28:22.000Z</time></trkpt>
        <trkpt lat="28.2728438" lon="105.0463512"><ele>579.66</ele><time>2026-01-29T21:28:29.000Z</time></trkpt>
        <trkpt lat="28.2727672" lon="105.0463739"><ele>581.8</ele><time>2026-01-29T21:28:44.000Z</time></trkpt>
        <trkpt lat="28.2726805" lon="105.046407"><ele>583.71</ele><time>2026-01-29T21:28:53.000Z</time></trkpt>
        <trkpt lat="28.2725816" lon="105.046442"><ele>584.7</ele><time>2026-01-29T21:29:05.000Z</time></trkpt>
        <trkpt lat="28.2724858" lon="105.0464626"><ele>585.64</ele><time>2026-01-29T21:29:15.000Z</time></trkpt>
        <trkpt lat="28.2723924" lon="105.046456"><ele>586.4</ele><time>2026-01-29T21:29:23.000Z</time></trkpt>
        <trkpt lat="28.2723029" lon="105.0464694"><ele>587.85</ele><time>2026-01-29T21:29:35.000Z</time></trkpt>
        <trkpt lat="28.2722089" lon="105.0464752"><ele>589.14</ele><time>2026-01-29T21:29:46.000Z</time></trkpt>
        <trkpt lat="28.2721169" lon="105.0464871"><ele>590.98</ele><time>2026-01-29T21:30:21.000Z</time></trkpt>
        <trkpt lat="28.2720243" lon="105.0464859"><ele>592.21</ele><time>2026-01-29T21:30:38.000Z</time></trkpt>
        <trkpt lat="28.2719313" lon="105.0464967"><ele>593.92</ele><time>2026-01-29T21:30:51.000Z</time></trkpt>
        <trkpt lat="28.2718449" lon="105.0465493"><ele>595.53</ele><time>2026-01-29T21:31:37.000Z</time></trkpt>
        <trkpt lat="28.2717878" lon="105.0466358"><ele>596.35</ele><time>2026-01-29T21:31:44.000Z</time></trkpt>
        <trkpt lat="28.2717398" lon="105.0467329"><ele>596.11</ele><time>2026-01-29T21:31:53.000Z</time></trkpt>
        <trkpt lat="28.2716984" lon="105.0468325"><ele>595.61</ele><time>2026-01-29T21:32:00.000Z</time></trkpt>
        <trkpt lat="28.2716638" lon="105.0469361"><ele>596.54</ele><time>2026-01-29T21:32:07.000Z</time></trkpt>
        <trkpt lat="28.2716478" lon="105.0470413"><ele>597.1</ele><time>2026-01-29T21:32:17.000Z</time></trkpt>
        <trkpt lat="28.2716158" lon="105.047137"><ele>597.85</ele><time>2026-01-29T21:32:25.000Z</time></trkpt>
        <trkpt lat="28.2716198" lon="105.0472382"><ele>598.79</ele><time>2026-01-29T21:32:35.000Z</time></trkpt>
        <trkpt lat="28.2715616" lon="105.0472945"><ele>599.36</ele><time>2026-01-29T21:32:43.000Z</time></trkpt>
        <trkpt lat="28.2714774" lon="105.0472806"><ele>599.86</ele><time>2026-01-29T21:32:53.000Z</time></trkpt>
        <trkpt lat="28.2713792" lon="105.0472547"><ele>599.6</ele><time>2026-01-29T21:33:01.000Z</time></trkpt>
        <trkpt lat="28.2712814" lon="105.0472065"><ele>599.14</ele><time>2026-01-29T21:33:07.000Z</time></trkpt>
        <trkpt lat="28.2711859" lon="105.0471691"><ele>598.92</ele><time>2026-01-29T21:33:17.000Z</time></trkpt>
        <trkpt lat="28.2710881" lon="105.0471428"><ele>598.31</ele><time>2026-01-29T21:33:25.000Z</time></trkpt>
        <trkpt lat="28.2709889" lon="105.0471093"><ele>597.42</ele><time>2026-01-29T21:33:35.000Z</time></trkpt>
        <trkpt lat="28.2708978" lon="105.0470619"><ele>597.07</ele><time>2026-01-29T21:33:47.000Z</time></trkpt>
        <trkpt lat="28.2708139" lon="105.0470175"><ele>595.85</ele><time>2026-01-29T21:33:55.000Z</time></trkpt>
        <trkpt lat="28.2707234" lon="105.0470004"><ele>594.14</ele><time>2026-01-29T21:34:05.000Z</time></trkpt>
        <trkpt lat="28.2706203" lon="105.0470194"><ele>592.82</ele><time>2026-01-29T21:34:13.000Z</time></trkpt>
        <trkpt lat="28.27052" lon="105.046986"><ele>591.97</ele><time>2026-01-29T21:34:20.000Z</time></trkpt>
        <trkpt lat="28.2704434" lon="105.0469196"><ele>591.73</ele><time>2026-01-29T21:34:26.000Z</time></trkpt>
        <trkpt lat="28.2703652" lon="105.0468651"><ele>591.27</ele><time>2026-01-29T21:34:36.000Z</time></trkpt>
        <trkpt lat="28.2702919" lon="105.0467893"><ele>590.96</ele><time>2026-01-29T21:34:44.000Z</time></trkpt>
        <trkpt lat="28.2702077" lon="105.04674"><ele>591.18</ele><time>2026-01-29T21:34:54.000Z</time></trkpt>
        <trkpt lat="28.270113" lon="105.0467391"><ele>592.48</ele><time>2026-01-29T21:35:03.000Z</time></trkpt>
        <trkpt lat="28.2700276" lon="105.0467885"><ele>594.67</ele><time>2026-01-29T21:35:11.000Z</time></trkpt>
        <trkpt lat="28.2699626" lon="105.046878"><ele>597.01</ele><time>2026-01-29T21:35:19.000Z</time></trkpt>
        <trkpt lat="28.2698828" lon="105.0468882"><ele>599.5</ele><time>2026-01-29T21:35:31.000Z</time></trkpt>
        <trkpt lat="28.2698026" lon="105.0468355"><ele>601.81</ele><time>2026-01-29T21:35:41.000Z</time></trkpt>
        <trkpt lat="28.2697134" lon="105.0468185"><ele>603.02</ele><time>2026-01-29T21:35:48.000Z</time></trkpt>
        <trkpt lat="28.2696291" lon="105.0468464"><ele>604.16</ele><time>2026-01-29T21:35:55.000Z</time></trkpt>
        <trkpt lat="28.2695351" lon="105.046875"><ele>604.66</ele><time>2026-01-29T21:36:03.000Z</time></trkpt>
        <trkpt lat="28.2694333" lon="105.0468993"><ele>605.3</ele><time>2026-01-29T21:36:11.000Z</time></trkpt>
        <trkpt lat="28.2693321" lon="105.0469298"><ele>605.68</ele><time>2026-01-29T21:36:19.000Z</time></trkpt>
        <trkpt lat="28.2692343" lon="105.0469171"><ele>605.87</ele><time>2026-01-29T21:36:26.000Z</time></trkpt>
        <trkpt lat="28.2691758" lon="105.0468431"><ele>605.17</ele><time>2026-01-29T21:36:35.000Z</time></trkpt>
        <trkpt lat="28.2691891" lon="105.0467404"><ele>604.35</ele><time>2026-01-29T21:36:47.000Z</time></trkpt>
        <trkpt lat="28.2692784" lon="105.0466963"><ele>603.46</ele><time>2026-01-29T21:36:56.000Z</time></trkpt>
        <trkpt lat="28.2693808" lon="105.0466589"><ele>602.97</ele><time>2026-01-29T21:37:04.000Z</time></trkpt>
        <trkpt lat="28.2694332" lon="105.046568"><ele>602.92</ele><time>2026-01-29T21:37:12.000Z</time></trkpt>
        <trkpt lat="28.2694602" lon="105.0464529"><ele>602.84</ele><time>2026-01-29T21:37:20.000Z</time></trkpt>
        <trkpt lat="28.2695318" lon="105.0463747"><ele>602.98</ele><time>2026-01-29T21:37:29.000Z</time></trkpt>
        <trkpt lat="28.2696211" lon="105.0463482"><ele>602.73</ele><time>2026-01-29T21:37:38.000Z</time></trkpt>
        <trkpt lat="28.269715" lon="105.0463232"><ele>602.79</ele><time>2026-01-29T21:37:47.000Z</time></trkpt>
        <trkpt lat="28.2697938" lon="105.0462653"><ele>603.15</ele><time>2026-01-29T21:37:57.000Z</time></trkpt>
        <trkpt lat="28.2698663" lon="105.0461919"><ele>603.25</ele><time>2026-01-29T21:38:08.000Z</time></trkpt>
        <trkpt lat="28.2699519" lon="105.0461599"><ele>603.06</ele><time>2026-01-29T21:38:15.000Z</time></trkpt>
        <trkpt lat="28.2700434" lon="105.0461437"><ele>602.96</ele><time>2026-01-29T21:38:25.000Z</time></trkpt>
        <trkpt lat="28.2701404" lon="105.0461239"><ele>603.34</ele><time>2026-01-29T21:38:32.000Z</time></trkpt>
        <trkpt lat="28.2702304" lon="105.0460698"><ele>603.5</ele><time>2026-01-29T21:38:41.000Z</time></trkpt>
        <trkpt lat="28.2703035" lon="105.0459974"><ele>603.31</ele><time>2026-01-29T21:38:48.000Z</time></trkpt>
        <trkpt lat="28.2703589" lon="105.0459069"><ele>602.83</ele><time>2026-01-29T21:38:55.000Z</time></trkpt>
        <trkpt lat="28.2704096" lon="105.0458082"><ele>601.87</ele><time>2026-01-29T21:39:03.000Z</time></trkpt>
        <trkpt lat="28.2704563" lon="105.0457144"><ele>600.7</ele><time>2026-01-29T21:39:10.000Z</time></trkpt>
        <trkpt lat="28.270515" lon="105.0456244"><ele>599.29</ele><time>2026-01-29T21:39:17.000Z</time></trkpt>
        <trkpt lat="28.2705512" lon="105.045522"><ele>598.11</ele><time>2026-01-29T21:39:25.000Z</time></trkpt>
        <trkpt lat="28.2705575" lon="105.0454177"><ele>597.55</ele><time>2026-01-29T21:39:33.000Z</time></trkpt>
        <trkpt lat="28.2705513" lon="105.0453073"><ele>598.01</ele><time>2026-01-29T21:39:42.000Z</time></trkpt>
        <trkpt lat="28.2705494" lon="105.0451991"><ele>599.18</ele><time>2026-01-29T21:39:50.000Z</time></trkpt>
        <trkpt lat="28.2705626" lon="105.045089"><ele>600.01</ele><time>2026-01-29T21:40:00.000Z</time></trkpt>
        <trkpt lat="28.2705897" lon="105.0449845"><ele>600.62</ele><time>2026-01-29T21:40:09.000Z</time></trkpt>
        <trkpt lat="28.2706511" lon="105.0449077"><ele>602.07</ele><time>2026-01-29T21:40:17.000Z</time></trkpt>
        <trkpt lat="28.2707412" lon="105.0448907"><ele>603.64</ele><time>2026-01-29T21:40:26.000Z</time></trkpt>
        <trkpt lat="28.2708368" lon="105.0448716"><ele>605.86</ele><time>2026-01-29T21:40:34.000Z</time></trkpt>
        <trkpt lat="28.2709208" lon="105.0448201"><ele>607.66</ele><time>2026-01-29T21:40:41.000Z</time></trkpt>
        <trkpt lat="28.2709463" lon="105.0447202"><ele>608.89</ele><time>2026-01-29T21:40:49.000Z</time></trkpt>
        <trkpt lat="28.2709637" lon="105.0446108"><ele>607.57</ele><time>2026-01-29T21:41:01.000Z</time></trkpt>
        <trkpt lat="28.2709887" lon="105.0445051"><ele>609.83</ele><time>2026-01-29T21:41:09.000Z</time></trkpt>
        <trkpt lat="28.2710584" lon="105.0444426"><ele>611.45</ele><time>2026-01-29T21:41:18.000Z</time></trkpt>
        <trkpt lat="28.2711548" lon="105.0444438"><ele>611.14</ele><time>2026-01-29T21:41:29.000Z</time></trkpt>
        <trkpt lat="28.2712568" lon="105.0444217"><ele>610.85</ele><time>2026-01-29T21:41:37.000Z</time></trkpt>
        <trkpt lat="28.2713586" lon="105.0444109"><ele>609.85</ele><time>2026-01-29T21:41:46.000Z</time></trkpt>
        <trkpt lat="28.2714542" lon="105.0443791"><ele>608.88</ele><time>2026-01-29T21:41:54.000Z</time></trkpt>
        <trkpt lat="28.2715459" lon="105.0443803"><ele>608.22</ele><time>2026-01-29T21:42:01.000Z</time></trkpt>
        <trkpt lat="28.2716439" lon="105.0443745"><ele>606.95</ele><time>2026-01-29T21:42:10.000Z</time></trkpt>
        <trkpt lat="28.2717387" lon="105.0443754"><ele>605.9</ele><time>2026-01-29T21:42:17.000Z</time></trkpt>
        <trkpt lat="28.271835" lon="105.0443467"><ele>604.9</ele><time>2026-01-29T21:42:25.000Z</time></trkpt>
        <trkpt lat="28.2719268" lon="105.0443014"><ele>604.14</ele><time>2026-01-29T21:42:33.000Z</time></trkpt>
        <trkpt lat="28.2719986" lon="105.0442344"><ele>603.98</ele><time>2026-01-29T21:42:40.000Z</time></trkpt>
        <trkpt lat="28.2720598" lon="105.0441501"><ele>603.95</ele><time>2026-01-29T21:42:48.000Z</time></trkpt>
        <trkpt lat="28.2721243" lon="105.0440629"><ele>604.16</ele><time>2026-01-29T21:42:55.000Z</time></trkpt>
        <trkpt lat="28.2721808" lon="105.0439762"><ele>603.76</ele><time>2026-01-29T21:43:01.000Z</time></trkpt>
        <trkpt lat="28.2722258" lon="105.0438857"><ele>602.94</ele><time>2026-01-29T21:43:07.000Z</time></trkpt>
        <trkpt lat="28.2722748" lon="105.0437996"><ele>601.99</ele><time>2026-01-29T21:43:15.000Z</time></trkpt>
        <trkpt lat="28.272332" lon="105.0437195"><ele>601.56</ele><time>2026-01-29T21:43:21.000Z</time></trkpt>
        <trkpt lat="28.2723845" lon="105.043632"><ele>600.5</ele><time>2026-01-29T21:43:27.000Z</time></trkpt>
        <trkpt lat="28.2723938" lon="105.0435246"><ele>599.54</ele><time>2026-01-29T21:43:36.000Z</time></trkpt>
        <trkpt lat="28.2723641" lon="105.0434235"><ele>597.51</ele><time>2026-01-29T21:43:43.000Z</time></trkpt>
        <trkpt lat="28.2723439" lon="105.0433186"><ele>596.5</ele><time>2026-01-29T21:43:52.000Z</time></trkpt>
        <trkpt lat="28.2724052" lon="105.0432657"><ele>596.38</ele><time>2026-01-29T21:44:05.000Z</time></trkpt>
        <trkpt lat="28.2724941" lon="105.0432941"><ele>596.94</ele><time>2026-01-29T21:44:12.000Z</time></trkpt>
        <trkpt lat="28.2725882" lon="105.043351"><ele>597.04</ele><time>2026-01-29T21:44:20.000Z</time></trkpt>
        <trkpt lat="28.27269" lon="105.0433558"><ele>597.78</ele><time>2026-01-29T21:44:28.000Z</time></trkpt>
        <trkpt lat="28.2727872" lon="105.0433377"><ele>598.2</ele><time>2026-01-29T21:44:38.000Z</time></trkpt>
        <trkpt lat="28.2728822" lon="105.0433514"><ele>600.01</ele><time>2026-01-29T21:44:47.000Z</time></trkpt>
        <trkpt lat="28.272972" lon="105.0433291"><ele>598.85</ele><time>2026-01-29T21:45:15.000Z</time></trkpt>
        <trkpt lat="28.2730498" lon="105.0432728"><ele>601.33</ele><time>2026-01-29T21:45:23.000Z</time></trkpt>
        <trkpt lat="28.2731055" lon="105.0431834"><ele>601.84</ele><time>2026-01-29T21:45:30.000Z</time></trkpt>
        <trkpt lat="28.2731585" lon="105.0430896"><ele>601.23</ele><time>2026-01-29T21:45:38.000Z</time></trkpt>
        <trkpt lat="28.2732242" lon="105.0430093"><ele>600.81</ele><time>2026-01-29T21:45:47.000Z</time></trkpt>
        <trkpt lat="28.2732798" lon="105.0429172"><ele>600.52</ele><time>2026-01-29T21:45:56.000Z</time></trkpt>
        <trkpt lat="28.2733011" lon="105.0428147"><ele>600.17</ele><time>2026-01-29T21:46:04.000Z</time></trkpt>
        <trkpt lat="28.2733235" lon="105.0427106"><ele>599.91</ele><time>2026-01-29T21:46:15.000Z</time></trkpt>
        <trkpt lat="28.2733942" lon="105.0426515"><ele>599.84</ele><time>2026-01-29T21:46:25.000Z</time></trkpt>
        <trkpt lat="28.2734786" lon="105.0426004"><ele>600.17</ele><time>2026-01-29T21:46:33.000Z</time></trkpt>
        <trkpt lat="28.2735758" lon="105.0425772"><ele>600.95</ele><time>2026-01-29T21:46:42.000Z</time></trkpt>
        <trkpt lat="28.2736686" lon="105.0426133"><ele>601.38</ele><time>2026-01-29T21:46:50.000Z</time></trkpt>
        <trkpt lat="28.2737456" lon="105.0425699"><ele>601.81</ele><time>2026-01-29T21:47:09.000Z</time></trkpt>
        <trkpt lat="28.2738069" lon="105.0424921"><ele>602.35</ele><time>2026-01-29T21:47:21.000Z</time></trkpt>
        <trkpt lat="28.2738619" lon="105.0423958"><ele>602.86</ele><time>2026-01-29T21:48:00.000Z</time></trkpt>
        <trkpt lat="28.2739011" lon="105.0422916"><ele>603.82</ele><time>2026-01-29T21:48:11.000Z</time></trkpt>
        <trkpt lat="28.2739666" lon="105.0422231"><ele>605.88</ele><time>2026-01-29T21:48:31.000Z</time></trkpt>
        <trkpt lat="28.2740525" lon="105.0422244"><ele>609.66</ele><time>2026-01-29T21:48:56.000Z</time></trkpt>
        <trkpt lat="28.2741118" lon="105.0423028"><ele>613.32</ele><time>2026-01-29T21:49:35.000Z</time></trkpt>
        <trkpt lat="28.2741008" lon="105.0422337"><ele>614.4</ele><time>2026-01-29T21:51:00.000Z</time></trkpt>
        <trkpt lat="28.2741654" lon="105.0421558"><ele>615.53</ele><time>2026-01-29T21:51:23.000Z</time></trkpt>
        <trkpt lat="28.274174" lon="105.0420504"><ele>615.53</ele><time>2026-01-29T21:51:43.000Z</time></trkpt>
        <trkpt lat="28.274218" lon="105.0419602"><ele>614.42</ele><time>2026-01-29T21:52:17.000Z</time></trkpt>
        <trkpt lat="28.274283" lon="105.0419905"><ele>613.31</ele><time>2026-01-29T21:52:54.000Z</time></trkpt>
        <trkpt lat="28.2743382" lon="105.0420827"><ele>611.35</ele><time>2026-01-29T21:53:10.000Z</time></trkpt>
        <trkpt lat="28.2743858" lon="105.0421961"><ele>609.99</ele><time>2026-01-29T21:53:25.000Z</time></trkpt>
        <trkpt lat="28.2744416" lon="105.042304"><ele>608.81</ele><time>2026-01-29T21:53:35.000Z</time></trkpt>
        <trkpt lat="28.2745081" lon="105.0423862"><ele>606.36</ele><time>2026-01-29T21:53:47.000Z</time></trkpt>
        <trkpt lat="28.2745613" lon="105.0423366"><ele>603.8</ele><time>2026-01-29T21:54:02.000Z</time></trkpt>
        <trkpt lat="28.2745653" lon="105.0422281"><ele>601.4</ele><time>2026-01-29T21:54:29.000Z</time></trkpt>
        <trkpt lat="28.2746055" lon="105.0421007"><ele>600.51</ele><time>2026-01-29T21:55:39.000Z</time></trkpt>
        <trkpt lat="28.2746479" lon="105.042004"><ele>599.7</ele><time>2026-01-29T21:56:05.000Z</time></trkpt>
        <trkpt lat="28.2747326" lon="105.0420566"><ele>598.8</ele><time>2026-01-29T21:57:10.000Z</time></trkpt>
        <trkpt lat="28.2747762" lon="105.0421576"><ele>597.11</ele><time>2026-01-29T21:57:36.000Z</time></trkpt>
        <trkpt lat="28.2748544" lon="105.0421408"><ele>593.46</ele><time>2026-01-29T21:57:53.000Z</time></trkpt>
        <trkpt lat="28.2749485" lon="105.0421636"><ele>589.54</ele><time>2026-01-29T21:58:11.000Z</time></trkpt>
        <trkpt lat="28.2750261" lon="105.0422258"><ele>587.23</ele><time>2026-01-29T21:58:33.000Z</time></trkpt>
        <trkpt lat="28.2751148" lon="105.042275"><ele>585.16</ele><time>2026-01-29T21:58:50.000Z</time></trkpt>
        <trkpt lat="28.2752054" lon="105.0422644"><ele>582.28</ele><time>2026-01-29T21:59:00.000Z</time></trkpt>
        <trkpt lat="28.2752957" lon="105.0422763"><ele>580.15</ele><time>2026-01-29T21:59:08.000Z</time></trkpt>
        <trkpt lat="28.2753761" lon="105.0423263"><ele>579.33</ele><time>2026-01-29T21:59:16.000Z</time></trkpt>
        <trkpt lat="28.2754444" lon="105.0423983"><ele>579.11</ele><time>2026-01-29T21:59:25.000Z</time></trkpt>
        <trkpt lat="28.2755014" lon="105.0424894"><ele>579.11</ele><time>2026-01-29T21:59:37.000Z</time></trkpt>
        <trkpt lat="28.2755763" lon="105.0425473"><ele>580.13</ele><time>2026-01-29T21:59:47.000Z</time></trkpt>
        <trkpt lat="28.2756666" lon="105.0425558"><ele>581.08</ele><time>2026-01-29T21:59:55.000Z</time></trkpt>
        <trkpt lat="28.2757507" lon="105.0425032"><ele>581.83</ele><time>2026-01-29T22:00:02.000Z</time></trkpt>
        <trkpt lat="28.2758238" lon="105.0424269"><ele>582.46</ele><time>2026-01-29T22:00:08.000Z</time></trkpt>
        <trkpt lat="28.2759038" lon="105.0423392"><ele>582.86</ele><time>2026-01-29T22:00:17.000Z</time></trkpt>
        <trkpt lat="28.2759731" lon="105.0422538"><ele>583.28</ele><time>2026-01-29T22:00:26.000Z</time></trkpt>
        <trkpt lat="28.2760379" lon="105.0421644"><ele>583.82</ele><time>2026-01-29T22:00:35.000Z</time></trkpt>
        <trkpt lat="28.2760748" lon="105.0420617"><ele>584.17</ele><time>2026-01-29T22:00:45.000Z</time></trkpt>
        <trkpt lat="28.276092" lon="105.0419556"><ele>584.12</ele><time>2026-01-29T22:00:53.000Z</time></trkpt>
        <trkpt lat="28.2761075" lon="105.0418493"><ele>583.81</ele><time>2026-01-29T22:01:01.000Z</time></trkpt>
        <trkpt lat="28.2761647" lon="105.0417494"><ele>583.33</ele><time>2026-01-29T22:01:11.000Z</time></trkpt>
        <trkpt lat="28.2762512" lon="105.0417023"><ele>583.31</ele><time>2026-01-29T22:01:19.000Z</time></trkpt>
        <trkpt lat="28.2763248" lon="105.0416694"><ele>583.53</ele><time>2026-01-29T22:01:29.000Z</time></trkpt>
        <trkpt lat="28.2764102" lon="105.0416316"><ele>583.79</ele><time>2026-01-29T22:01:42.000Z</time></trkpt>
        <trkpt lat="28.276489" lon="105.0415796"><ele>582.89</ele><time>2026-01-29T22:01:51.000Z</time></trkpt>
        <trkpt lat="28.2765714" lon="105.0415337"><ele>581.94</ele><time>2026-01-29T22:02:01.000Z</time></trkpt>
        <trkpt lat="28.2766631" lon="105.0415364"><ele>581.07</ele><time>2026-01-29T22:02:08.000Z</time></trkpt>
        <trkpt lat="28.2767413" lon="105.0415993"><ele>580.94</ele><time>2026-01-29T22:02:16.000Z</time></trkpt>
        <trkpt lat="28.2768124" lon="105.0416925"><ele>580.8</ele><time>2026-01-29T22:02:23.000Z</time></trkpt>
        <trkpt lat="28.2768931" lon="105.0417528"><ele>580.73</ele><time>2026-01-29T22:02:31.000Z</time></trkpt>
        <trkpt lat="28.2769796" lon="105.0418047"><ele>580.33</ele><time>2026-01-29T22:02:41.000Z</time></trkpt>
        <trkpt lat="28.2770637" lon="105.0418516"><ele>578.74</ele><time>2026-01-29T22:02:50.000Z</time></trkpt>
        <trkpt lat="28.2771433" lon="105.0419032"><ele>576.75</ele><time>2026-01-29T22:02:59.000Z</time></trkpt>
        <trkpt lat="28.2772306" lon="105.0419122"><ele>574.99</ele><time>2026-01-29T22:03:07.000Z</time></trkpt>
        <trkpt lat="28.2773329" lon="105.0419026"><ele>573.68</ele><time>2026-01-29T22:03:15.000Z</time></trkpt>
        <trkpt lat="28.2774297" lon="105.041891"><ele>575.39</ele><time>2026-01-29T22:03:24.000Z</time></trkpt>
        <trkpt lat="28.2775213" lon="105.0418773"><ele>576.28</ele><time>2026-01-29T22:03:32.000Z</time></trkpt>
        <trkpt lat="28.2776184" lon="105.0418609"><ele>576.59</ele><time>2026-01-29T22:03:48.000Z</time></trkpt>
        <trkpt lat="28.2777157" lon="105.0418379"><ele>577.09</ele><time>2026-01-29T22:03:57.000Z</time></trkpt>
        <trkpt lat="28.2778086" lon="105.0418047"><ele>577.43</ele><time>2026-01-29T22:04:04.000Z</time></trkpt>
        <trkpt lat="28.2778944" lon="105.0417495"><ele>577.68</ele><time>2026-01-29T22:04:12.000Z</time></trkpt>
        <trkpt lat="28.2779756" lon="105.0416822"><ele>577.11</ele><time>2026-01-29T22:04:21.000Z</time></trkpt>
        <trkpt lat="28.2780405" lon="105.0415973"><ele>575.87</ele><time>2026-01-29T22:04:30.000Z</time></trkpt>
        <trkpt lat="28.2780812" lon="105.0414875"><ele>574.71</ele><time>2026-01-29T22:04:41.000Z</time></trkpt>
        <trkpt lat="28.2781322" lon="105.0413888"><ele>569.51</ele><time>2026-01-29T22:04:50.000Z</time></trkpt>
        <trkpt lat="28.2781656" lon="105.0413469"><ele>568.72</ele><time>2026-01-29T22:04:56.000Z</time></trkpt>
        <trkpt lat="28.2782198" lon="105.0412804"><ele>570.7</ele><time>2026-01-29T22:05:22.000Z</time></trkpt>
        <trkpt lat="28.2782827" lon="105.0411947"><ele>572.53</ele><time>2026-01-29T22:05:30.000Z</time></trkpt>
        <trkpt lat="28.2783454" lon="105.041114"><ele>573.72</ele><time>2026-01-29T22:05:38.000Z</time></trkpt>
        <trkpt lat="28.2784136" lon="105.0410383"><ele>573.96</ele><time>2026-01-29T22:05:47.000Z</time></trkpt>
        <trkpt lat="28.2784779" lon="105.04096"><ele>573.82</ele><time>2026-01-29T22:05:55.000Z</time></trkpt>
        <trkpt lat="28.2785564" lon="105.0408952"><ele>573.53</ele><time>2026-01-29T22:06:03.000Z</time></trkpt>
        <trkpt lat="28.2786363" lon="105.0408795"><ele>572.64</ele><time>2026-01-29T22:06:17.000Z</time></trkpt>
        <trkpt lat="28.2787219" lon="105.0408343"><ele>570.26</ele><time>2026-01-29T22:06:42.000Z</time></trkpt>
        <trkpt lat="28.2788009" lon="105.0407711"><ele>569</ele><time>2026-01-29T22:06:50.000Z</time></trkpt>
        <trkpt lat="28.2788611" lon="105.0406878"><ele>568.11</ele><time>2026-01-29T22:06:57.000Z</time></trkpt>
        <trkpt lat="28.2789092" lon="105.0405914"><ele>566.89</ele><time>2026-01-29T22:07:05.000Z</time></trkpt>
        <trkpt lat="28.2789618" lon="105.0405009"><ele>565.56</ele><time>2026-01-29T22:07:13.000Z</time></trkpt>
        <trkpt lat="28.2790191" lon="105.0404152"><ele>564.31</ele><time>2026-01-29T22:07:22.000Z</time></trkpt>
        <trkpt lat="28.2790638" lon="105.0403235"><ele>563.44</ele><time>2026-01-29T22:07:31.000Z</time></trkpt>
        <trkpt lat="28.2791139" lon="105.0402319"><ele>561.99</ele><time>2026-01-29T22:07:40.000Z</time></trkpt>
        <trkpt lat="28.2791706" lon="105.0401453"><ele>560.65</ele><time>2026-01-29T22:07:48.000Z</time></trkpt>
        <trkpt lat="28.2792341" lon="105.040066"><ele>559.39</ele><time>2026-01-29T22:07:56.000Z</time></trkpt>
        <trkpt lat="28.2792922" lon="105.0399822"><ele>558.11</ele><time>2026-01-29T22:08:07.000Z</time></trkpt>
        <trkpt lat="28.2793651" lon="105.0399147"><ele>557.14</ele><time>2026-01-29T22:08:14.000Z</time></trkpt>
        <trkpt lat="28.2794444" lon="105.0398394"><ele>556.69</ele><time>2026-01-29T22:08:23.000Z</time></trkpt>
        <trkpt lat="28.2795202" lon="105.0397711"><ele>556.13</ele><time>2026-01-29T22:08:31.000Z</time></trkpt>
        <trkpt lat="28.2795982" lon="105.0397101"><ele>555.67</ele><time>2026-01-29T22:08:41.000Z</time></trkpt>
        <trkpt lat="28.2796914" lon="105.0396963"><ele>556.06</ele><time>2026-01-29T22:08:50.000Z</time></trkpt>
        <trkpt lat="28.2797893" lon="105.0397185"><ele>557.08</ele><time>2026-01-29T22:08:57.000Z</time></trkpt>
        <trkpt lat="28.2798844" lon="105.0397324"><ele>557.83</ele><time>2026-01-29T22:09:04.000Z</time></trkpt>
        <trkpt lat="28.2799793" lon="105.0397261"><ele>557.81</ele><time>2026-01-29T22:09:23.000Z</time></trkpt>
        <trkpt lat="28.2800634" lon="105.039686"><ele>557.3</ele><time>2026-01-29T22:09:38.000Z</time></trkpt>
        <trkpt lat="28.2801472" lon="105.0396316"><ele>556.42</ele><time>2026-01-29T22:09:46.000Z</time></trkpt>
        <trkpt lat="28.2802309" lon="105.0395679"><ele>555.09</ele><time>2026-01-29T22:09:54.000Z</time></trkpt>
        <trkpt lat="28.2803043" lon="105.0394966"><ele>553.98</ele><time>2026-01-29T22:10:01.000Z</time></trkpt>
        <trkpt lat="28.2803669" lon="105.039415"><ele>552.92</ele><time>2026-01-29T22:10:09.000Z</time></trkpt>
        <trkpt lat="28.2804312" lon="105.0393415"><ele>552.35</ele><time>2026-01-29T22:10:18.000Z</time></trkpt>
        <trkpt lat="28.2804954" lon="105.0392649"><ele>551.85</ele><time>2026-01-29T22:10:27.000Z</time></trkpt>
        <trkpt lat="28.2805621" lon="105.0391916"><ele>551.2</ele><time>2026-01-29T22:10:34.000Z</time></trkpt>
        <trkpt lat="28.2806369" lon="105.0391286"><ele>550.58</ele><time>2026-01-29T22:10:41.000Z</time></trkpt>
        <trkpt lat="28.2806999" lon="105.0390467"><ele>549.8</ele><time>2026-01-29T22:10:49.000Z</time></trkpt>
        <trkpt lat="28.2807552" lon="105.0389634"><ele>548.32</ele><time>2026-01-29T22:10:55.000Z</time></trkpt>
        <trkpt lat="28.2808029" lon="105.0388746"><ele>547.26</ele><time>2026-01-29T22:11:03.000Z</time></trkpt>
        <trkpt lat="28.2808321" lon="105.0387697"><ele>546.36</ele><time>2026-01-29T22:11:10.000Z</time></trkpt>
        <trkpt lat="28.2808392" lon="105.0386575"><ele>545.33</ele><time>2026-01-29T22:11:17.000Z</time></trkpt>
        <trkpt lat="28.2808377" lon="105.0385451"><ele>544.62</ele><time>2026-01-29T22:11:24.000Z</time></trkpt>
        <trkpt lat="28.2808377" lon="105.038435"><ele>544.1</ele><time>2026-01-29T22:11:31.000Z</time></trkpt>
        <trkpt lat="28.2808377" lon="105.038435"><ele>544.1</ele><time>2026-01-29T22:11:37.000Z</time></trkpt>
      </trkseg>
      <trkseg>
        <trkpt lat="28.280884" lon="105.0383151"><ele>543.4</ele><time>2026-01-29T22:50:27.000Z</time></trkpt>
        <trkpt lat="28.280884" lon="105.0383151"><ele>543.4</ele><time>2026-01-29T22:50:33.000Z</time></trkpt>
        <trkpt lat="28.2809538" lon="105.0382379"><ele>543.23</ele><time>2026-01-29T22:50:40.000Z</time></trkpt>
        <trkpt lat="28.2810222" lon="105.038165"><ele>543.54</ele><time>2026-01-29T22:50:49.000Z</time></trkpt>
        <trkpt lat="28.2811072" lon="105.0381206"><ele>543.58</ele><time>2026-01-29T22:51:00.000Z</time></trkpt>
        <trkpt lat="28.2811931" lon="105.0381532"><ele>543.44</ele><time>2026-01-29T22:51:09.000Z</time></trkpt>
        <trkpt lat="28.2812653" lon="105.0382279"><ele>544.29</ele><time>2026-01-29T22:51:17.000Z</time></trkpt>
        <trkpt lat="28.2813333" lon="105.0383185"><ele>545.18</ele><time>2026-01-29T22:51:24.000Z</time></trkpt>
        <trkpt lat="28.2814073" lon="105.0384061"><ele>545.85</ele><time>2026-01-29T22:51:32.000Z</time></trkpt>
        <trkpt lat="28.2814573" lon="105.0385052"><ele>546.17</ele><time>2026-01-29T22:51:41.000Z</time></trkpt>
        <trkpt lat="28.2815415" lon="105.0385372"><ele>547</ele><time>2026-01-29T22:51:46.000Z</time></trkpt>
        <trkpt lat="28.2816303" lon="105.0385156"><ele>547.44</ele><time>2026-01-29T22:51:56.000Z</time></trkpt>
        <trkpt lat="28.2816915" lon="105.0384867"><ele>547.69</ele><time>2026-01-29T22:52:02.000Z</time></trkpt>
        <trkpt lat="28.2817777" lon="105.0384577"><ele>547.83</ele><time>2026-01-29T22:52:16.000Z</time></trkpt>
        <trkpt lat="28.2818757" lon="105.0384488"><ele>547.92</ele><time>2026-01-29T22:52:26.000Z</time></trkpt>
        <trkpt lat="28.2819677" lon="105.0384223"><ele>547.96</ele><time>2026-01-29T22:52:34.000Z</time></trkpt>
        <trkpt lat="28.2820219" lon="105.038376"><ele>539.77</ele><time>2026-01-29T22:52:36.000Z</time></trkpt>
        <trkpt lat="28.2821001" lon="105.0383571"><ele>536.07</ele><time>2026-01-29T22:52:49.000Z</time></trkpt>
        <trkpt lat="28.2821846" lon="105.0383286"><ele>538.32</ele><time>2026-01-29T22:52:55.000Z</time></trkpt>
        <trkpt lat="28.2822521" lon="105.0382587"><ele>540.09</ele><time>2026-01-29T22:53:05.000Z</time></trkpt>
        <trkpt lat="28.2823266" lon="105.0381823"><ele>543.81</ele><time>2026-01-29T22:53:26.000Z</time></trkpt>
        <trkpt lat="28.2824046" lon="105.0381097"><ele>545.48</ele><time>2026-01-29T22:53:34.000Z</time></trkpt>
        <trkpt lat="28.2824957" lon="105.0380664"><ele>545.62</ele><time>2026-01-29T22:53:42.000Z</time></trkpt>
        <trkpt lat="28.2825909" lon="105.0380571"><ele>544.98</ele><time>2026-01-29T22:53:50.000Z</time></trkpt>
        <trkpt lat="28.2826877" lon="105.0380821"><ele>545.32</ele><time>2026-01-29T22:53:59.000Z</time></trkpt>
        <trkpt lat="28.2827802" lon="105.0381088"><ele>546.2</ele><time>2026-01-29T22:54:08.000Z</time></trkpt>
        <trkpt lat="28.2828719" lon="105.0381097"><ele>547.05</ele><time>2026-01-29T22:54:21.000Z</time></trkpt>
        <trkpt lat="28.2829654" lon="105.0380867"><ele>546.5</ele><time>2026-01-29T22:54:30.000Z</time></trkpt>
        <trkpt lat="28.283056" lon="105.0380411"><ele>547.21</ele><time>2026-01-29T22:54:39.000Z</time></trkpt>
        <trkpt lat="28.2831489" lon="105.0380017"><ele>547.97</ele><time>2026-01-29T22:54:48.000Z</time></trkpt>
        <trkpt lat="28.2832354" lon="105.0379575"><ele>548.22</ele><time>2026-01-29T22:54:57.000Z</time></trkpt>
        <trkpt lat="28.2833243" lon="105.0379143"><ele>547.79</ele><time>2026-01-29T22:55:05.000Z</time></trkpt>
        <trkpt lat="28.2834169" lon="105.0378805"><ele>547.63</ele><time>2026-01-29T22:55:13.000Z</time></trkpt>
        <trkpt lat="28.2835083" lon="105.0378479"><ele>547.26</ele><time>2026-01-29T22:55:21.000Z</time></trkpt>
        <trkpt lat="28.2836024" lon="105.0378183"><ele>546.98</ele><time>2026-01-29T22:55:29.000Z</time></trkpt>
        <trkpt lat="28.283666" lon="105.0377442"><ele>546.8</ele><time>2026-01-29T22:55:38.000Z</time></trkpt>
        <trkpt lat="28.2837037" lon="105.0376406"><ele>546.65</ele><time>2026-01-29T22:55:46.000Z</time></trkpt>
        <trkpt lat="28.2837309" lon="105.0375313"><ele>546.29</ele><time>2026-01-29T22:55:54.000Z</time></trkpt>
        <trkpt lat="28.2837515" lon="105.0374195"><ele>545.87</ele><time>2026-01-29T22:56:02.000Z</time></trkpt>
        <trkpt lat="28.2837831" lon="105.037312"><ele>545.46</ele><time>2026-01-29T22:56:10.000Z</time></trkpt>
        <trkpt lat="28.2838197" lon="105.0372028"><ele>544.94</ele><time>2026-01-29T22:56:19.000Z</time></trkpt>
        <trkpt lat="28.2838572" lon="105.0371033"><ele>543.5</ele><time>2026-01-29T22:56:25.000Z</time></trkpt>
        <trkpt lat="28.283906" lon="105.0370149"><ele>542.53</ele><time>2026-01-29T22:56:34.000Z</time></trkpt>
        <trkpt lat="28.2839897" lon="105.0369652"><ele>542.93</ele><time>2026-01-29T22:56:42.000Z</time></trkpt>
        <trkpt lat="28.2840875" lon="105.0369312"><ele>542.87</ele><time>2026-01-29T22:56:50.000Z</time></trkpt>
        <trkpt lat="28.2841779" lon="105.0368799"><ele>543.11</ele><time>2026-01-29T22:56:58.000Z</time></trkpt>
        <trkpt lat="28.2842196" lon="105.0367878"><ele>543.05</ele><time>2026-01-29T22:57:05.000Z</time></trkpt>
        <trkpt lat="28.2842206" lon="105.0366796"><ele>543.24</ele><time>2026-01-29T22:57:12.000Z</time></trkpt>
        <trkpt lat="28.28421" lon="105.0365635"><ele>543.36</ele><time>2026-01-29T22:57:20.000Z</time></trkpt>
        <trkpt lat="28.2841883" lon="105.036449"><ele>543.74</ele><time>2026-01-29T22:57:28.000Z</time></trkpt>
        <trkpt lat="28.2841692" lon="105.0363414"><ele>544.58</ele><time>2026-01-29T22:57:36.000Z</time></trkpt>
        <trkpt lat="28.2841328" lon="105.0362383"><ele>545.12</ele><time>2026-01-29T22:57:45.000Z</time></trkpt>
        <trkpt lat="28.2840807" lon="105.0361473"><ele>545.59</ele><time>2026-01-29T22:57:54.000Z</time></trkpt>
        <trkpt lat="28.2840388" lon="105.0360513"><ele>546.32</ele><time>2026-01-29T22:58:02.000Z</time></trkpt>
        <trkpt lat="28.2840482" lon="105.0359476"><ele>546.74</ele><time>2026-01-29T22:58:11.000Z</time></trkpt>
        <trkpt lat="28.2840613" lon="105.0358433"><ele>546.8</ele><time>2026-01-29T22:58:20.000Z</time></trkpt>
        <trkpt lat="28.2840703" lon="105.0357341"><ele>546.54</ele><time>2026-01-29T22:58:29.000Z</time></trkpt>
        <trkpt lat="28.2840311" lon="105.0356456"><ele>545.94</ele><time>2026-01-29T22:58:40.000Z</time></trkpt>
        <trkpt lat="28.2839545" lon="105.0355916"><ele>545.4</ele><time>2026-01-29T22:58:47.000Z</time></trkpt>
        <trkpt lat="28.2838604" lon="105.0355589"><ele>545.19</ele><time>2026-01-29T22:58:53.000Z</time></trkpt>
        <trkpt lat="28.2837622" lon="105.0355277"><ele>545.73</ele><time>2026-01-29T22:59:01.000Z</time></trkpt>
        <trkpt lat="28.2837145" lon="105.0354406"><ele>546.58</ele><time>2026-01-29T22:59:09.000Z</time></trkpt>
        <trkpt lat="28.2837269" lon="105.0353398"><ele>546.98</ele><time>2026-01-29T22:59:17.000Z</time></trkpt>
        <trkpt lat="28.2837745" lon="105.0352391"><ele>547.33</ele><time>2026-01-29T22:59:24.000Z</time></trkpt>
        <trkpt lat="28.2838252" lon="105.0351414"><ele>547.68</ele><time>2026-01-29T22:59:29.000Z</time></trkpt>
        <trkpt lat="28.2839021" lon="105.0350684"><ele>546.97</ele><time>2026-01-29T22:59:38.000Z</time></trkpt>
        <trkpt lat="28.2839823" lon="105.0350007"><ele>546.28</ele><time>2026-01-29T22:59:46.000Z</time></trkpt>
        <trkpt lat="28.2840349" lon="105.0349133"><ele>545.37</ele><time>2026-01-29T22:59:55.000Z</time></trkpt>
        <trkpt lat="28.2840164" lon="105.0348168"><ele>544.7</ele><time>2026-01-29T23:00:04.000Z</time></trkpt>
        <trkpt lat="28.283958" lon="105.0347286"><ele>544.16</ele><time>2026-01-29T23:00:12.000Z</time></trkpt>
        <trkpt lat="28.2839292" lon="105.0346278"><ele>543.34</ele><time>2026-01-29T23:00:19.000Z</time></trkpt>
        <trkpt lat="28.2839302" lon="105.0345168"><ele>542.82</ele><time>2026-01-29T23:00:26.000Z</time></trkpt>
        <trkpt lat="28.2839635" lon="105.0344122"><ele>542.57</ele><time>2026-01-29T23:00:34.000Z</time></trkpt>
        <trkpt lat="28.2839958" lon="105.0343077"><ele>542.22</ele><time>2026-01-29T23:00:40.000Z</time></trkpt>
        <trkpt lat="28.2839965" lon="105.0342034"><ele>541.58</ele><time>2026-01-29T23:00:48.000Z</time></trkpt>
        <trkpt lat="28.2839822" lon="105.0340895"><ele>540.84</ele><time>2026-01-29T23:00:57.000Z</time></trkpt>
        <trkpt lat="28.2839404" lon="105.0339898"><ele>543.66</ele><time>2026-01-29T23:01:07.000Z</time></trkpt>
        <trkpt lat="28.2839061" lon="105.0338849"><ele>545.23</ele><time>2026-01-29T23:01:17.000Z</time></trkpt>
        <trkpt lat="28.2839283" lon="105.03379"><ele>546.13</ele><time>2026-01-29T23:01:29.000Z</time></trkpt>
        <trkpt lat="28.2840057" lon="105.0337511"><ele>546.64</ele><time>2026-01-29T23:01:40.000Z</time></trkpt>
        <trkpt lat="28.2840982" lon="105.033719"><ele>546.93</ele><time>2026-01-29T23:01:52.000Z</time></trkpt>
        <trkpt lat="28.2841958" lon="105.0336896"><ele>547.1</ele><time>2026-01-29T23:02:02.000Z</time></trkpt>
        <trkpt lat="28.2842901" lon="105.0336628"><ele>547.19</ele><time>2026-01-29T23:02:12.000Z</time></trkpt>
        <trkpt lat="28.2843807" lon="105.0336338"><ele>547.24</ele><time>2026-01-29T23:02:25.000Z</time></trkpt>
        <trkpt lat="28.2844859" lon="105.0335686"><ele>547.27</ele><time>2026-01-29T23:02:39.000Z</time></trkpt>
        <trkpt lat="28.2846641" lon="105.033469"><ele>547.29</ele><time>2026-01-29T23:02:43.000Z</time></trkpt>
        <trkpt lat="28.2847808" lon="105.0334024"><ele>540.43</ele><time>2026-01-29T23:02:51.000Z</time></trkpt>
        <trkpt lat="28.2848763" lon="105.0333437"><ele>537.16</ele><time>2026-01-29T23:02:59.000Z</time></trkpt>
        <trkpt lat="28.2849507" lon="105.0332801"><ele>535.54</ele><time>2026-01-29T23:03:15.000Z</time></trkpt>
        <trkpt lat="28.2850417" lon="105.0332487"><ele>535.02</ele><time>2026-01-29T23:03:23.000Z</time></trkpt>
        <trkpt lat="28.2851369" lon="105.0332356"><ele>536.48</ele><time>2026-01-29T23:03:30.000Z</time></trkpt>
        <trkpt lat="28.28523" lon="105.0332446"><ele>536.25</ele><time>2026-01-29T23:03:38.000Z</time></trkpt>
        <trkpt lat="28.2853267" lon="105.0332486"><ele>535.59</ele><time>2026-01-29T23:03:48.000Z</time></trkpt>
        <trkpt lat="28.2854165" lon="105.0332321"><ele>535.68</ele><time>2026-01-29T23:03:55.000Z</time></trkpt>
        <trkpt lat="28.2855038" lon="105.0331993"><ele>535.91</ele><time>2026-01-29T23:04:03.000Z</time></trkpt>
        <trkpt lat="28.2855933" lon="105.0332108"><ele>536.37</ele><time>2026-01-29T23:04:16.000Z</time></trkpt>
        <trkpt lat="28.285692" lon="105.033249"><ele>536.42</ele><time>2026-01-29T23:04:24.000Z</time></trkpt>
        <trkpt lat="28.2857847" lon="105.0332837"><ele>540.15</ele><time>2026-01-29T23:04:29.000Z</time></trkpt>
        <trkpt lat="28.2858788" lon="105.0332894"><ele>539.92</ele><time>2026-01-29T23:04:39.000Z</time></trkpt>
        <trkpt lat="28.2858621" lon="105.03322"><ele>542.53</ele><time>2026-01-29T23:05:01.000Z</time></trkpt>
        <trkpt lat="28.2858198" lon="105.0330935"><ele>544.01</ele><time>2026-01-29T23:05:04.000Z</time></trkpt>
        <trkpt lat="28.2857908" lon="105.0330347"><ele>539.01</ele><time>2026-01-29T23:05:05.000Z</time></trkpt>
        <trkpt lat="28.2857069" lon="105.032998"><ele>539.97</ele><time>2026-01-29T23:05:11.000Z</time></trkpt>
        <trkpt lat="28.2856212" lon="105.0329489"><ele>537.19</ele><time>2026-01-29T23:05:19.000Z</time></trkpt>
        <trkpt lat="28.2855302" lon="105.0329079"><ele>536.18</ele><time>2026-01-29T23:05:26.000Z</time></trkpt>
        <trkpt lat="28.2855537" lon="105.0328446"><ele>536.3</ele><time>2026-01-29T23:05:36.000Z</time></trkpt>
        <trkpt lat="28.2856356" lon="105.0327991"><ele>540.53</ele><time>2026-01-29T23:05:45.000Z</time></trkpt>
        <trkpt lat="28.2857381" lon="105.0327846"><ele>544.1</ele><time>2026-01-29T23:05:53.000Z</time></trkpt>
        <trkpt lat="28.285843" lon="105.0328031"><ele>545.79</ele><time>2026-01-29T23:06:00.000Z</time></trkpt>
        <trkpt lat="28.2859497" lon="105.0328279"><ele>546.09</ele><time>2026-01-29T23:06:07.000Z</time></trkpt>
        <trkpt lat="28.2860525" lon="105.0328305"><ele>546.47</ele><time>2026-01-29T23:06:16.000Z</time></trkpt>
        <trkpt lat="28.286147" lon="105.0328393"><ele>546.63</ele><time>2026-01-29T23:06:22.000Z</time></trkpt>
        <trkpt lat="28.2862378" lon="105.032876"><ele>546.58</ele><time>2026-01-29T23:06:29.000Z</time></trkpt>
        <trkpt lat="28.2863274" lon="105.0329227"><ele>546.76</ele><time>2026-01-29T23:06:37.000Z</time></trkpt>
        <trkpt lat="28.2864203" lon="105.0329456"><ele>547.13</ele><time>2026-01-29T23:06:44.000Z</time></trkpt>
        <trkpt lat="28.2865174" lon="105.0329186"><ele>547.53</ele><time>2026-01-29T23:06:53.000Z</time></trkpt>
        <trkpt lat="28.2866047" lon="105.0328656"><ele>548.37</ele><time>2026-01-29T23:07:01.000Z</time></trkpt>
        <trkpt lat="28.2867023" lon="105.0328028"><ele>549.16</ele><time>2026-01-29T23:07:11.000Z</time></trkpt>
        <trkpt lat="28.2867944" lon="105.0327626"><ele>549.69</ele><time>2026-01-29T23:07:18.000Z</time></trkpt>
        <trkpt lat="28.2868928" lon="105.032737"><ele>549.73</ele><time>2026-01-29T23:07:26.000Z</time></trkpt>
        <trkpt lat="28.2869082" lon="105.0326532"><ele>549.9</ele><time>2026-01-29T23:07:41.000Z</time></trkpt>
        <trkpt lat="28.2868522" lon="105.0325706"><ele>551.76</ele><time>2026-01-29T23:07:51.000Z</time></trkpt>
        <trkpt lat="28.2867982" lon="105.0324679"><ele>553.72</ele><time>2026-01-29T23:08:14.000Z</time></trkpt>
        <trkpt lat="28.2867642" lon="105.0323583"><ele>555.14</ele><time>2026-01-29T23:08:29.000Z</time></trkpt>
        <trkpt lat="28.2867233" lon="105.03225"><ele>556.05</ele><time>2026-01-29T23:08:47.000Z</time></trkpt>
        <trkpt lat="28.2866777" lon="105.0321429"><ele>557.65</ele><time>2026-01-29T23:09:21.000Z</time></trkpt>
        <trkpt lat="28.2866337" lon="105.0320423"><ele>560.31</ele><time>2026-01-29T23:09:38.000Z</time></trkpt>
        <trkpt lat="28.2865776" lon="105.0319532"><ele>562.82</ele><time>2026-01-29T23:09:44.000Z</time></trkpt>
        <trkpt lat="28.2865125" lon="105.0318755"><ele>564.99</ele><time>2026-01-29T23:09:53.000Z</time></trkpt>
        <trkpt lat="28.286444" lon="105.0317966"><ele>567.59</ele><time>2026-01-29T23:10:04.000Z</time></trkpt>
        <trkpt lat="28.2863889" lon="105.0317074"><ele>569.74</ele><time>2026-01-29T23:10:14.000Z</time></trkpt>
        <trkpt lat="28.2864485" lon="105.0316688"><ele>572.89</ele><time>2026-01-29T23:10:50.000Z</time></trkpt>
        <trkpt lat="28.2865351" lon="105.0316256"><ele>576.12</ele><time>2026-01-29T23:11:39.000Z</time></trkpt>
        <trkpt lat="28.2866204" lon="105.0315665"><ele>579.01</ele><time>2026-01-29T23:12:03.000Z</time></trkpt>
        <trkpt lat="28.2866464" lon="105.0314621"><ele>583.1</ele><time>2026-01-29T23:13:14.000Z</time></trkpt>
        <trkpt lat="28.2866586" lon="105.0313564"><ele>587.51</ele><time>2026-01-29T23:16:43.000Z</time></trkpt>
        <trkpt lat="28.2866696" lon="105.0312378"><ele>591.51</ele><time>2026-01-29T23:16:53.000Z</time></trkpt>
        <trkpt lat="28.2866878" lon="105.0311305"><ele>595.37</ele><time>2026-01-29T23:17:06.000Z</time></trkpt>
        <trkpt lat="28.2867274" lon="105.0310299"><ele>598.82</ele><time>2026-01-29T23:17:14.000Z</time></trkpt>
        <trkpt lat="28.2867871" lon="105.0309421"><ele>601.74</ele><time>2026-01-29T23:17:26.000Z</time></trkpt>
        <trkpt lat="28.2868188" lon="105.0308434"><ele>604.84</ele><time>2026-01-29T23:17:36.000Z</time></trkpt>
        <trkpt lat="28.2868456" lon="105.0307385"><ele>608.83</ele><time>2026-01-29T23:17:46.000Z</time></trkpt>
        <trkpt lat="28.2868293" lon="105.0306335"><ele>613.02</ele><time>2026-01-29T23:18:10.000Z</time></trkpt>
        <trkpt lat="28.2868271" lon="105.0305258"><ele>616.67</ele><time>2026-01-29T23:18:21.000Z</time></trkpt>
        <trkpt lat="28.2867953" lon="105.0304248"><ele>618.85</ele><time>2026-01-29T23:18:32.000Z</time></trkpt>
        <trkpt lat="28.2867565" lon="105.0303262"><ele>620.9</ele><time>2026-01-29T23:18:44.000Z</time></trkpt>
        <trkpt lat="28.2866871" lon="105.0302585"><ele>622.92</ele><time>2026-01-29T23:18:54.000Z</time></trkpt>
        <trkpt lat="28.286637" lon="105.0301677"><ele>625.12</ele><time>2026-01-29T23:19:11.000Z</time></trkpt>
        <trkpt lat="28.2865772" lon="105.0300841"><ele>627.31</ele><time>2026-01-29T23:19:25.000Z</time></trkpt>
        <trkpt lat="28.2865347" lon="105.0299883"><ele>630.26</ele><time>2026-01-29T23:19:37.000Z</time></trkpt>
        <trkpt lat="28.2865126" lon="105.0298834"><ele>634.41</ele><time>2026-01-29T23:20:10.000Z</time></trkpt>
        <trkpt lat="28.2865115" lon="105.0297767"><ele>638.83</ele><time>2026-01-29T23:20:17.000Z</time></trkpt>
        <trkpt lat="28.2864979" lon="105.0296661"><ele>642.57</ele><time>2026-01-29T23:20:45.000Z</time></trkpt>
        <trkpt lat="28.2864594" lon="105.0295716"><ele>646.05</ele><time>2026-01-29T23:20:55.000Z</time></trkpt>
        <trkpt lat="28.2864273" lon="105.0294706"><ele>648.99</ele><time>2026-01-29T23:21:04.000Z</time></trkpt>
        <trkpt lat="28.2863955" lon="105.0293697"><ele>651.3</ele><time>2026-01-29T23:21:13.000Z</time></trkpt>
        <trkpt lat="28.2863411" lon="105.0292798"><ele>653.63</ele><time>2026-01-29T23:21:21.000Z</time></trkpt>
        <trkpt lat="28.2862603" lon="105.0292265"><ele>656.33</ele><time>2026-01-29T23:21:31.000Z</time></trkpt>
        <trkpt lat="28.2861685" lon="105.0291884"><ele>658.07</ele><time>2026-01-29T23:21:40.000Z</time></trkpt>
        <trkpt lat="28.2860879" lon="105.0291333"><ele>659.26</ele><time>2026-01-29T23:21:49.000Z</time></trkpt>
        <trkpt lat="28.2860394" lon="105.02905"><ele>660.27</ele><time>2026-01-29T23:21:56.000Z</time></trkpt>
        <trkpt lat="28.2860012" lon="105.0289567"><ele>660.6</ele><time>2026-01-29T23:22:04.000Z</time></trkpt>
        <trkpt lat="28.2859662" lon="105.0288513"><ele>659.91</ele><time>2026-01-29T23:22:12.000Z</time></trkpt>
        <trkpt lat="28.2859343" lon="105.0287447"><ele>659.46</ele><time>2026-01-29T23:22:21.000Z</time></trkpt>
        <trkpt lat="28.2858732" lon="105.0286618"><ele>659.03</ele><time>2026-01-29T23:22:30.000Z</time></trkpt>
        <trkpt lat="28.2858038" lon="105.0285881"><ele>659.58</ele><time>2026-01-29T23:22:42.000Z</time></trkpt>
        <trkpt lat="28.2857439" lon="105.0285096"><ele>660.3</ele><time>2026-01-29T23:22:51.000Z</time></trkpt>
        <trkpt lat="28.2856906" lon="105.0284243"><ele>661.22</ele><time>2026-01-29T23:23:02.000Z</time></trkpt>
        <trkpt lat="28.2856494" lon="105.0283297"><ele>662.51</ele><time>2026-01-29T23:23:12.000Z</time></trkpt>
        <trkpt lat="28.285615" lon="105.0282247"><ele>663.42</ele><time>2026-01-29T23:23:21.000Z</time></trkpt>
        <trkpt lat="28.285554" lon="105.0281478"><ele>664.31</ele><time>2026-01-29T23:23:29.000Z</time></trkpt>
        <trkpt lat="28.2855014" lon="105.028077"><ele>664.86</ele><time>2026-01-29T23:23:41.000Z</time></trkpt>
        <trkpt lat="28.2854214" lon="105.0280767"><ele>665.46</ele><time>2026-01-29T23:24:11.000Z</time></trkpt>
        <trkpt lat="28.2853312" lon="105.0281051"><ele>665.51</ele><time>2026-01-29T23:24:37.000Z</time></trkpt>
        <trkpt lat="28.2852382" lon="105.0281362"><ele>666.53</ele><time>2026-01-29T23:25:06.000Z</time></trkpt>
        <trkpt lat="28.2851481" lon="105.0281718"><ele>668.51</ele><time>2026-01-29T23:25:30.000Z</time></trkpt>
        <trkpt lat="28.2850561" lon="105.0281814"><ele>669.85</ele><time>2026-01-29T23:26:10.000Z</time></trkpt>
        <trkpt lat="28.2849679" lon="105.0281547"><ele>671.86</ele><time>2026-01-29T23:26:44.000Z</time></trkpt>
        <trkpt lat="28.2848843" lon="105.0280958"><ele>674.25</ele><time>2026-01-29T23:27:50.000Z</time></trkpt>
        <trkpt lat="28.2848131" lon="105.0280314"><ele>678.82</ele><time>2026-01-29T23:28:06.000Z</time></trkpt>
        <trkpt lat="28.2847553" lon="105.0279506"><ele>685.39</ele><time>2026-01-29T23:28:25.000Z</time></trkpt>
        <trkpt lat="28.2847151" lon="105.0278578"><ele>691.73</ele><time>2026-01-29T23:28:49.000Z</time></trkpt>
        <trkpt lat="28.2846734" lon="105.0277585"><ele>696.39</ele><time>2026-01-29T23:28:58.000Z</time></trkpt>
        <trkpt lat="28.2846229" lon="105.027662"><ele>699.87</ele><time>2026-01-29T23:29:08.000Z</time></trkpt>
        <trkpt lat="28.2845722" lon="105.0275713"><ele>704.88</ele><time>2026-01-29T23:29:19.000Z</time></trkpt>
        <trkpt lat="28.2844867" lon="105.0275276"><ele>707.38</ele><time>2026-01-29T23:30:11.000Z</time></trkpt>
        <trkpt lat="28.2843893" lon="105.0275315"><ele>708.99</ele><time>2026-01-29T23:30:18.000Z</time></trkpt>
        <trkpt lat="28.2842828" lon="105.0275417"><ele>710.26</ele><time>2026-01-29T23:30:25.000Z</time></trkpt>
        <trkpt lat="28.2841826" lon="105.0275663"><ele>710.27</ele><time>2026-01-29T23:30:31.000Z</time></trkpt>
        <trkpt lat="28.2840871" lon="105.0276008"><ele>709.81</ele><time>2026-01-29T23:30:39.000Z</time></trkpt>
        <trkpt lat="28.2840201" lon="105.0276727"><ele>709.29</ele><time>2026-01-29T23:30:46.000Z</time></trkpt>
        <trkpt lat="28.2839503" lon="105.0277509"><ele>708.43</ele><time>2026-01-29T23:30:57.000Z</time></trkpt>
        <trkpt lat="28.2838671" lon="105.0278111"><ele>706.32</ele><time>2026-01-29T23:31:05.000Z</time></trkpt>
        <trkpt lat="28.2837768" lon="105.027846"><ele>704.14</ele><time>2026-01-29T23:31:14.000Z</time></trkpt>
        <trkpt lat="28.2836892" lon="105.0278766"><ele>702.13</ele><time>2026-01-29T23:31:21.000Z</time></trkpt>
        <trkpt lat="28.2835972" lon="105.0279074"><ele>700.49</ele><time>2026-01-29T23:31:30.000Z</time></trkpt>
        <trkpt lat="28.2835067" lon="105.0279504"><ele>698.87</ele><time>2026-01-29T23:31:40.000Z</time></trkpt>
        <trkpt lat="28.283415" lon="105.0279899"><ele>696.83</ele><time>2026-01-29T23:31:47.000Z</time></trkpt>
        <trkpt lat="28.2833192" lon="105.0280071"><ele>694.98</ele><time>2026-01-29T23:31:54.000Z</time></trkpt>
        <trkpt lat="28.2832252" lon="105.0279744"><ele>693.22</ele><time>2026-01-29T23:32:03.000Z</time></trkpt>
        <trkpt lat="28.2831342" lon="105.027935"><ele>691.64</ele><time>2026-01-29T23:32:11.000Z</time></trkpt>
        <trkpt lat="28.2830476" lon="105.0278735"><ele>690.63</ele><time>2026-01-29T23:32:19.000Z</time></trkpt>
        <trkpt lat="28.2829719" lon="105.0278049"><ele>689.95</ele><time>2026-01-29T23:32:27.000Z</time></trkpt>
        <trkpt lat="28.282886" lon="105.0277458"><ele>690.02</ele><time>2026-01-29T23:32:34.000Z</time></trkpt>
        <trkpt lat="28.2827902" lon="105.0277135"><ele>690.09</ele><time>2026-01-29T23:32:41.000Z</time></trkpt>
        <trkpt lat="28.2826968" lon="105.0276767"><ele>689.89</ele><time>2026-01-29T23:32:49.000Z</time></trkpt>
        <trkpt lat="28.2826095" lon="105.0276346"><ele>689.51</ele><time>2026-01-29T23:32:56.000Z</time></trkpt>
        <trkpt lat="28.282521" lon="105.0275978"><ele>689.62</ele><time>2026-01-29T23:33:03.000Z</time></trkpt>
        <trkpt lat="28.2824364" lon="105.0275582"><ele>689.68</ele><time>2026-01-29T23:33:09.000Z</time></trkpt>
        <trkpt lat="28.2823316" lon="105.0275326"><ele>689.83</ele><time>2026-01-29T23:33:17.000Z</time></trkpt>
        <trkpt lat="28.2822254" lon="105.0275378"><ele>690.14</ele><time>2026-01-29T23:33:24.000Z</time></trkpt>
        <trkpt lat="28.2821421" lon="105.0274984"><ele>690.62</ele><time>2026-01-29T23:33:31.000Z</time></trkpt>
        <trkpt lat="28.2820581" lon="105.0274446"><ele>691.49</ele><time>2026-01-29T23:33:38.000Z</time></trkpt>
        <trkpt lat="28.2819669" lon="105.0274228"><ele>692.13</ele><time>2026-01-29T23:33:44.000Z</time></trkpt>
        <trkpt lat="28.2818735" lon="105.0274108"><ele>692.25</ele><time>2026-01-29T23:33:52.000Z</time></trkpt>
        <trkpt lat="28.2817751" lon="105.0273922"><ele>691.43</ele><time>2026-01-29T23:33:59.000Z</time></trkpt>
        <trkpt lat="28.2816816" lon="105.0273743"><ele>689.93</ele><time>2026-01-29T23:34:06.000Z</time></trkpt>
        <trkpt lat="28.2815906" lon="105.0273636"><ele>688.43</ele><time>2026-01-29T23:34:13.000Z</time></trkpt>
        <trkpt lat="28.2814964" lon="105.02735"><ele>687.32</ele><time>2026-01-29T23:34:20.000Z</time></trkpt>
        <trkpt lat="28.2814056" lon="105.0273095"><ele>686.38</ele><time>2026-01-29T23:34:29.000Z</time></trkpt>
        <trkpt lat="28.2813341" lon="105.0272437"><ele>685.24</ele><time>2026-01-29T23:34:39.000Z</time></trkpt>
        <trkpt lat="28.2812536" lon="105.0272016"><ele>684.84</ele><time>2026-01-29T23:34:58.000Z</time></trkpt>
        <trkpt lat="28.2811943" lon="105.0271227"><ele>685.69</ele><time>2026-01-29T23:35:10.000Z</time></trkpt>
        <trkpt lat="28.2811903" lon="105.0270208"><ele>686.64</ele><time>2026-01-29T23:35:23.000Z</time></trkpt>
        <trkpt lat="28.2811654" lon="105.0269198"><ele>687.84</ele><time>2026-01-29T23:35:37.000Z</time></trkpt>
        <trkpt lat="28.2811251" lon="105.0268219"><ele>689.76</ele><time>2026-01-29T23:35:52.000Z</time></trkpt>
        <trkpt lat="28.2810606" lon="105.0267493"><ele>692.06</ele><time>2026-01-29T23:36:02.000Z</time></trkpt>
        <trkpt lat="28.2809912" lon="105.0266791"><ele>693.93</ele><time>2026-01-29T23:36:14.000Z</time></trkpt>
        <trkpt lat="28.2809333" lon="105.0265961"><ele>695.95</ele><time>2026-01-29T23:36:28.000Z</time></trkpt>
        <trkpt lat="28.2808754" lon="105.0265137"><ele>698.2</ele><time>2026-01-29T23:36:40.000Z</time></trkpt>
        <trkpt lat="28.2808506" lon="105.0264098"><ele>700.39</ele><time>2026-01-29T23:37:52.000Z</time></trkpt>
        <trkpt lat="28.2808591" lon="105.0263072"><ele>702.6</ele><time>2026-01-29T23:38:08.000Z</time></trkpt>
        <trkpt lat="28.2808406" lon="105.0262048"><ele>704.19</ele><time>2026-01-29T23:38:32.000Z</time></trkpt>
        <trkpt lat="28.2808435" lon="105.0261014"><ele>705.36</ele><time>2026-01-29T23:38:43.000Z</time></trkpt>
        <trkpt lat="28.2808672" lon="105.0259914"><ele>705.99</ele><time>2026-01-29T23:38:53.000Z</time></trkpt>
        <trkpt lat="28.2809029" lon="105.0258924"><ele>707.05</ele><time>2026-01-29T23:39:15.000Z</time></trkpt>
        <trkpt lat="28.2809861" lon="105.025834"><ele>709.16</ele><time>2026-01-29T23:42:37.000Z</time></trkpt>
        <trkpt lat="28.2810716" lon="105.0258021"><ele>711.35</ele><time>2026-01-29T23:43:00.000Z</time></trkpt>
        <trkpt lat="28.281153" lon="105.0257482"><ele>713.07</ele><time>2026-01-29T23:43:36.000Z</time></trkpt>
        <trkpt lat="28.281184" lon="105.0256478"><ele>714.29</ele><time>2026-01-29T23:43:50.000Z</time></trkpt>
        <trkpt lat="28.2811573" lon="105.0255444"><ele>715.69</ele><time>2026-01-29T23:44:12.000Z</time></trkpt>
        <trkpt lat="28.2811042" lon="105.0254421"><ele>718.85</ele><time>2026-01-29T23:44:23.000Z</time></trkpt>
        <trkpt lat="28.2810473" lon="105.0253406"><ele>720.82</ele><time>2026-01-29T23:47:15.000Z</time></trkpt>
        <trkpt lat="28.2811007" lon="105.0252551"><ele>722.87</ele><time>2026-01-29T23:48:25.000Z</time></trkpt>
        <trkpt lat="28.2811826" lon="105.0253189"><ele>726.83</ele><time>2026-01-29T23:48:40.000Z</time></trkpt>
        <trkpt lat="28.2812702" lon="105.0253462"><ele>731.61</ele><time>2026-01-29T23:49:07.000Z</time></trkpt>
        <trkpt lat="28.2813517" lon="105.0253108"><ele>736.8</ele><time>2026-01-29T23:49:36.000Z</time></trkpt>
        <trkpt lat="28.2814133" lon="105.025233"><ele>743.32</ele><time>2026-01-29T23:50:05.000Z</time></trkpt>
        <trkpt lat="28.2814614" lon="105.0251387"><ele>749.62</ele><time>2026-01-29T23:50:24.000Z</time></trkpt>
        <trkpt lat="28.2815183" lon="105.0250467"><ele>754.44</ele><time>2026-01-29T23:50:38.000Z</time></trkpt>
        <trkpt lat="28.2815556" lon="105.0249479"><ele>757.96</ele><time>2026-01-29T23:50:55.000Z</time></trkpt>
        <trkpt lat="28.281551" lon="105.024845"><ele>762.21</ele><time>2026-01-29T23:51:15.000Z</time></trkpt>
        <trkpt lat="28.2815399" lon="105.0247365"><ele>767.3</ele><time>2026-01-29T23:51:32.000Z</time></trkpt>
        <trkpt lat="28.2815518" lon="105.0246334"><ele>770.73</ele><time>2026-01-29T23:51:53.000Z</time></trkpt>
        <trkpt lat="28.2815758" lon="105.0245308"><ele>775.85</ele><time>2026-01-29T23:52:06.000Z</time></trkpt>
        <trkpt lat="28.2815971" lon="105.0244274"><ele>780.72</ele><time>2026-01-29T23:53:51.000Z</time></trkpt>
        <trkpt lat="28.2816362" lon="105.0243341"><ele>789.7</ele><time>2026-01-29T23:54:13.000Z</time></trkpt>
        <trkpt lat="28.2816592" lon="105.0242354"><ele>797.5</ele><time>2026-01-29T23:54:40.000Z</time></trkpt>
        <trkpt lat="28.2816784" lon="105.0241345"><ele>803.93</ele><time>2026-01-29T23:55:19.000Z</time></trkpt>
        <trkpt lat="28.2817038" lon="105.0240349"><ele>808.63</ele><time>2026-01-29T23:59:11.000Z</time></trkpt>
        <trkpt lat="28.2817531" lon="105.0239387"><ele>811.76</ele><time>2026-01-29T23:59:39.000Z</time></trkpt>
        <trkpt lat="28.2817744" lon="105.0238368"><ele>815.08</ele><time>2026-01-29T23:59:51.000Z</time></trkpt>
        <trkpt lat="28.2817278" lon="105.0237583"><ele>818.36</ele><time>2026-01-30T00:00:10.000Z</time></trkpt>
        <trkpt lat="28.2816588" lon="105.023686"><ele>822.7</ele><time>2026-01-30T00:00:22.000Z</time></trkpt>
        <trkpt lat="28.2816022" lon="105.0235997"><ele>827.23</ele><time>2026-01-30T00:00:42.000Z</time></trkpt>
        <trkpt lat="28.2815712" lon="105.0234916"><ele>831.45</ele><time>2026-01-30T00:00:53.000Z</time></trkpt>
        <trkpt lat="28.2815968" lon="105.0233918"><ele>835.18</ele><time>2026-01-30T00:01:06.000Z</time></trkpt>
        <trkpt lat="28.2816347" lon="105.0232897"><ele>841.21</ele><time>2026-01-30T00:01:31.000Z</time></trkpt>
        <trkpt lat="28.2816566" lon="105.0231854"><ele>845.48</ele><time>2026-01-30T00:02:01.000Z</time></trkpt>
        <trkpt lat="28.2816576" lon="105.0230806"><ele>849.24</ele><time>2026-01-30T00:02:30.000Z</time></trkpt>
        <trkpt lat="28.2816642" lon="105.0229749"><ele>854.48</ele><time>2026-01-30T00:02:41.000Z</time></trkpt>
        <trkpt lat="28.2816716" lon="105.0228665"><ele>859.11</ele><time>2026-01-30T00:03:37.000Z</time></trkpt>
        <trkpt lat="28.281744" lon="105.0228304"><ele>862.46</ele><time>2026-01-30T00:04:06.000Z</time></trkpt>
        <trkpt lat="28.2817397" lon="105.0227549"><ele>865.36</ele><time>2026-01-30T00:04:56.000Z</time></trkpt>
        <trkpt lat="28.281689" lon="105.022675"><ele>869.45</ele><time>2026-01-30T00:05:23.000Z</time></trkpt>
        <trkpt lat="28.2816362" lon="105.0225869"><ele>872.65</ele><time>2026-01-30T00:05:44.000Z</time></trkpt>
        <trkpt lat="28.2815544" lon="105.0225133"><ele>874.75</ele><time>2026-01-30T00:06:11.000Z</time></trkpt>
        <trkpt lat="28.2814771" lon="105.0224456"><ele>876.25</ele><time>2026-01-30T00:06:32.000Z</time></trkpt>
        <trkpt lat="28.2813986" lon="105.0223783"><ele>878.54</ele><time>2026-01-30T00:07:27.000Z</time></trkpt>
        <trkpt lat="28.2813599" lon="105.0222872"><ele>884.35</ele><time>2026-01-30T00:07:45.000Z</time></trkpt>
        <trkpt lat="28.2814489" lon="105.022221"><ele>889.03</ele><time>2026-01-30T00:10:36.000Z</time></trkpt>
        <trkpt lat="28.2815255" lon="105.0221673"><ele>899.64</ele><time>2026-01-30T00:10:52.000Z</time></trkpt>
        <trkpt lat="28.2816109" lon="105.0221958"><ele>906.53</ele><time>2026-01-30T00:11:29.000Z</time></trkpt>
        <trkpt lat="28.2816883" lon="105.0221558"><ele>912.51</ele><time>2026-01-30T00:11:46.000Z</time></trkpt>
        <trkpt lat="28.2817649" lon="105.0222035"><ele>917.3</ele><time>2026-01-30T00:13:04.000Z</time></trkpt>
        <trkpt lat="28.2817612" lon="105.0223082"><ele>921.81</ele><time>2026-01-30T00:13:32.000Z</time></trkpt>
        <trkpt lat="28.281731" lon="105.0224054"><ele>925.18</ele><time>2026-01-30T00:14:03.000Z</time></trkpt>
        <trkpt lat="28.2818116" lon="105.0223663"><ele>932.31</ele><time>2026-01-30T00:16:26.000Z</time></trkpt>
        <trkpt lat="28.2819065" lon="105.0223698"><ele>937.36</ele><time>2026-01-30T00:16:35.000Z</time></trkpt>
        <trkpt lat="28.2819891" lon="105.0224228"><ele>940.79</ele><time>2026-01-30T00:16:58.000Z</time></trkpt>
        <trkpt lat="28.2820458" lon="105.022503"><ele>943.57</ele><time>2026-01-30T00:17:16.000Z</time></trkpt>
        <trkpt lat="28.2820923" lon="105.0225941"><ele>945.65</ele><time>2026-01-30T00:17:24.000Z</time></trkpt>
        <trkpt lat="28.2821389" lon="105.0226878"><ele>946.9</ele><time>2026-01-30T00:17:34.000Z</time></trkpt>
        <trkpt lat="28.2822117" lon="105.0227477"><ele>948.2</ele><time>2026-01-30T00:17:45.000Z</time></trkpt>
        <trkpt lat="28.2822935" lon="105.0227969"><ele>949.08</ele><time>2026-01-30T00:18:09.000Z</time></trkpt>
        <trkpt lat="28.2823799" lon="105.0228337"><ele>949.99</ele><time>2026-01-30T00:18:18.000Z</time></trkpt>
        <trkpt lat="28.2824753" lon="105.0228592"><ele>950.3</ele><time>2026-01-30T00:18:35.000Z</time></trkpt>
        <trkpt lat="28.2825685" lon="105.0228742"><ele>950.5</ele><time>2026-01-30T00:18:43.000Z</time></trkpt>
        <trkpt lat="28.2826668" lon="105.0228925"><ele>949.88</ele><time>2026-01-30T00:18:53.000Z</time></trkpt>
        <trkpt lat="28.2827595" lon="105.0228884"><ele>948.53</ele><time>2026-01-30T00:19:02.000Z</time></trkpt>
        <trkpt lat="28.2828561" lon="105.022886"><ele>947.36</ele><time>2026-01-30T00:19:12.000Z</time></trkpt>
        <trkpt lat="28.2829511" lon="105.0228981"><ele>945.68</ele><time>2026-01-30T00:19:23.000Z</time></trkpt>
        <trkpt lat="28.283045" lon="105.0229121"><ele>944.87</ele><time>2026-01-30T00:19:31.000Z</time></trkpt>
        <trkpt lat="28.283144" lon="105.0229109"><ele>944.78</ele><time>2026-01-30T00:19:39.000Z</time></trkpt>
        <trkpt lat="28.2832416" lon="105.0229162"><ele>944.93</ele><time>2026-01-30T00:19:48.000Z</time></trkpt>
        <trkpt lat="28.2833337" lon="105.0229315"><ele>945.13</ele><time>2026-01-30T00:19:55.000Z</time></trkpt>
        <trkpt lat="28.2834265" lon="105.0229376"><ele>945.54</ele><time>2026-01-30T00:20:02.000Z</time></trkpt>
        <trkpt lat="28.2835214" lon="105.0229275"><ele>946.46</ele><time>2026-01-30T00:20:11.000Z</time></trkpt>
        <trkpt lat="28.2835827" lon="105.0229901"><ele>948.02</ele><time>2026-01-30T00:20:23.000Z</time></trkpt>
        <trkpt lat="28.2836385" lon="105.0230743"><ele>949.72</ele><time>2026-01-30T00:20:44.000Z</time></trkpt>
        <trkpt lat="28.2836959" lon="105.0230447"><ele>950.62</ele><time>2026-01-30T00:21:42.000Z</time></trkpt>
        <trkpt lat="28.2837417" lon="105.022952"><ele>948.7</ele><time>2026-01-30T00:21:59.000Z</time></trkpt>
        <trkpt lat="28.2837908" lon="105.022851"><ele>946.9</ele><time>2026-01-30T00:22:39.000Z</time></trkpt>
        <trkpt lat="28.2837528" lon="105.0227313"><ele>945.31</ele><time>2026-01-30T00:24:37.000Z</time></trkpt>
        <trkpt lat="28.2838307" lon="105.0226651"><ele>943.05</ele><time>2026-01-30T00:24:53.000Z</time></trkpt>
        <trkpt lat="28.283912" lon="105.0226179"><ele>941.23</ele><time>2026-01-30T00:25:41.000Z</time></trkpt>
        <trkpt lat="28.2838663" lon="105.0225767"><ele>935.08</ele><time>2026-01-30T00:26:13.000Z</time></trkpt>
        <trkpt lat="28.2838421" lon="105.0224895"><ele>929.92</ele><time>2026-01-30T00:26:53.000Z</time></trkpt>
        <trkpt lat="28.2838785" lon="105.0224074"><ele>925.99</ele><time>2026-01-30T00:27:30.000Z</time></trkpt>
        <trkpt lat="28.2838252" lon="105.0223623"><ele>921.51</ele><time>2026-01-30T00:28:14.000Z</time></trkpt>
        <trkpt lat="28.2838241" lon="105.0222771"><ele>919</ele><time>2026-01-30T00:28:26.000Z</time></trkpt>
        <trkpt lat="28.2838709" lon="105.0221947"><ele>916.86</ele><time>2026-01-30T00:28:41.000Z</time></trkpt>
        <trkpt lat="28.2839073" lon="105.0220813"><ele>915.48</ele><time>2026-01-30T00:30:03.000Z</time></trkpt>
        <trkpt lat="28.2839438" lon="105.0219825"><ele>906.72</ele><time>2026-01-30T00:30:36.000Z</time></trkpt>
        <trkpt lat="28.2839599" lon="105.0218812"><ele>898.17</ele><time>2026-01-30T00:31:10.000Z</time></trkpt>
        <trkpt lat="28.2839824" lon="105.0217708"><ele>888.63</ele><time>2026-01-30T00:31:47.000Z</time></trkpt>
        <trkpt lat="28.2840444" lon="105.0217003"><ele>881.08</ele><time>2026-01-30T00:32:02.000Z</time></trkpt>
        <trkpt lat="28.2840526" lon="105.0216015"><ele>874.43</ele><time>2026-01-30T00:32:50.000Z</time></trkpt>
        <trkpt lat="28.2840941" lon="105.0215119"><ele>868.68</ele><time>2026-01-30T00:33:15.000Z</time></trkpt>
        <trkpt lat="28.2840641" lon="105.0214298"><ele>863.96</ele><time>2026-01-30T00:33:33.000Z</time></trkpt>
        <trkpt lat="28.2841102" lon="105.0213737"><ele>859.86</ele><time>2026-01-30T00:34:18.000Z</time></trkpt>
        <trkpt lat="28.2841524" lon="105.0212919"><ele>854.83</ele><time>2026-01-30T00:34:56.000Z</time></trkpt>
        <trkpt lat="28.2841334" lon="105.0212019"><ele>847.85</ele><time>2026-01-30T00:35:31.000Z</time></trkpt>
        <trkpt lat="28.2841043" lon="105.0211001"><ele>842.14</ele><time>2026-01-30T00:36:17.000Z</time></trkpt>
        <trkpt lat="28.2841118" lon="105.0209959"><ele>837.14</ele><time>2026-01-30T00:37:02.000Z</time></trkpt>
        <trkpt lat="28.2841831" lon="105.0209548"><ele>832.11</ele><time>2026-01-30T00:37:23.000Z</time></trkpt>
        <trkpt lat="28.2841536" lon="105.020899"><ele>827.03</ele><time>2026-01-30T00:37:47.000Z</time></trkpt>
        <trkpt lat="28.2842307" lon="105.0208901"><ele>819.86</ele><time>2026-01-30T00:38:50.000Z</time></trkpt>
        <trkpt lat="28.2842971" lon="105.0208164"><ele>811.28</ele><time>2026-01-30T00:39:30.000Z</time></trkpt>
        <trkpt lat="28.2843876" lon="105.0207803"><ele>805.41</ele><time>2026-01-30T00:39:56.000Z</time></trkpt>
        <trkpt lat="28.2844098" lon="105.0206869"><ele>800.46</ele><time>2026-01-30T00:42:19.000Z</time></trkpt>
        <trkpt lat="28.2844971" lon="105.0206586"><ele>792.8</ele><time>2026-01-30T00:43:18.000Z</time></trkpt>
        <trkpt lat="28.2845908" lon="105.0206344"><ele>783.52</ele><time>2026-01-30T00:44:07.000Z</time></trkpt>
        <trkpt lat="28.2846707" lon="105.0205829"><ele>775.23</ele><time>2026-01-30T00:44:35.000Z</time></trkpt>
        <trkpt lat="28.28475" lon="105.0205281"><ele>768.09</ele><time>2026-01-30T00:45:05.000Z</time></trkpt>
        <trkpt lat="28.2848222" lon="105.0204588"><ele>759.11</ele><time>2026-01-30T00:45:45.000Z</time></trkpt>
        <trkpt lat="28.2848847" lon="105.0203779"><ele>750.06</ele><time>2026-01-30T00:46:08.000Z</time></trkpt>
        <trkpt lat="28.2849507" lon="105.0202991"><ele>741.17</ele><time>2026-01-30T00:46:19.000Z</time></trkpt>
        <trkpt lat="28.2850196" lon="105.0203636"><ele>732.09</ele><time>2026-01-30T00:47:52.000Z</time></trkpt>
        <trkpt lat="28.2850403" lon="105.0204742"><ele>722.65</ele><time>2026-01-30T00:48:01.000Z</time></trkpt>
        <trkpt lat="28.2851055" lon="105.0205521"><ele>715.85</ele><time>2026-01-30T00:48:10.000Z</time></trkpt>
        <trkpt lat="28.2851795" lon="105.0206165"><ele>711.39</ele><time>2026-01-30T00:48:19.000Z</time></trkpt>
        <trkpt lat="28.2852159" lon="105.0207121"><ele>708.76</ele><time>2026-01-30T00:48:29.000Z</time></trkpt>
        <trkpt lat="28.2852177" lon="105.0208275"><ele>706.36</ele><time>2026-01-30T00:48:37.000Z</time></trkpt>
        <trkpt lat="28.2852317" lon="105.0209404"><ele>704.12</ele><time>2026-01-30T00:48:47.000Z</time></trkpt>
        <trkpt lat="28.2852934" lon="105.021007"><ele>703.12</ele><time>2026-01-30T00:48:54.000Z</time></trkpt>
        <trkpt lat="28.2853696" lon="105.0210732"><ele>702.7</ele><time>2026-01-30T00:49:02.000Z</time></trkpt>
        <trkpt lat="28.2854181" lon="105.0211614"><ele>702.14</ele><time>2026-01-30T00:49:11.000Z</time></trkpt>
        <trkpt lat="28.2854036" lon="105.0212572"><ele>702.39</ele><time>2026-01-30T00:49:21.000Z</time></trkpt>
        <trkpt lat="28.2853625" lon="105.0213561"><ele>702.57</ele><time>2026-01-30T00:49:31.000Z</time></trkpt>
        <trkpt lat="28.2853363" lon="105.0214649"><ele>702.74</ele><time>2026-01-30T00:49:41.000Z</time></trkpt>
        <trkpt lat="28.2853315" lon="105.0215804"><ele>702.52</ele><time>2026-01-30T00:49:51.000Z</time></trkpt>
        <trkpt lat="28.2853494" lon="105.0216914"><ele>702.32</ele><time>2026-01-30T00:49:58.000Z</time></trkpt>
        <trkpt lat="28.2853691" lon="105.0217961"><ele>700.87</ele><time>2026-01-30T00:50:05.000Z</time></trkpt>
        <trkpt lat="28.28539" lon="105.0219026"><ele>700.79</ele><time>2026-01-30T00:50:14.000Z</time></trkpt>
        <trkpt lat="28.2853806" lon="105.0220148"><ele>700.15</ele><time>2026-01-30T00:50:23.000Z</time></trkpt>
        <trkpt lat="28.2853457" lon="105.0221346"><ele>699.02</ele><time>2026-01-30T00:50:32.000Z</time></trkpt>
        <trkpt lat="28.2853433" lon="105.0222482"><ele>697.44</ele><time>2026-01-30T00:50:40.000Z</time></trkpt>
        <trkpt lat="28.2853775" lon="105.0223507"><ele>696.19</ele><time>2026-01-30T00:50:49.000Z</time></trkpt>
        <trkpt lat="28.2853787" lon="105.0224125"><ele>695.57</ele><time>2026-01-30T00:50:58.000Z</time></trkpt>
        <trkpt lat="28.2854489" lon="105.022448"><ele>695.2</ele><time>2026-01-30T00:51:25.000Z</time></trkpt>
        <trkpt lat="28.2855339" lon="105.022505"><ele>695.54</ele><time>2026-01-30T00:51:33.000Z</time></trkpt>
        <trkpt lat="28.2856159" lon="105.0225747"><ele>695.69</ele><time>2026-01-30T00:51:39.000Z</time></trkpt>
        <trkpt lat="28.2856882" lon="105.0226514"><ele>695.73</ele><time>2026-01-30T00:51:46.000Z</time></trkpt>
        <trkpt lat="28.2857577" lon="105.0227316"><ele>695.73</ele><time>2026-01-30T00:51:54.000Z</time></trkpt>
        <trkpt lat="28.2858314" lon="105.0227995"><ele>695.76</ele><time>2026-01-30T00:52:01.000Z</time></trkpt>
        <trkpt lat="28.2858963" lon="105.0228808"><ele>695.45</ele><time>2026-01-30T00:52:09.000Z</time></trkpt>
        <trkpt lat="28.2859734" lon="105.0229497"><ele>695.48</ele><time>2026-01-30T00:52:18.000Z</time></trkpt>
        <trkpt lat="28.2860613" lon="105.022995"><ele>694.02</ele><time>2026-01-30T00:52:27.000Z</time></trkpt>
        <trkpt lat="28.2861551" lon="105.0230222"><ele>695.17</ele><time>2026-01-30T00:52:33.000Z</time></trkpt>
        <trkpt lat="28.2862446" lon="105.0230552"><ele>695.81</ele><time>2026-01-30T00:52:41.000Z</time></trkpt>
        <trkpt lat="28.2863268" lon="105.0231034"><ele>695.82</ele><time>2026-01-30T00:52:49.000Z</time></trkpt>
        <trkpt lat="28.2864128" lon="105.0231502"><ele>695.37</ele><time>2026-01-30T00:52:57.000Z</time></trkpt>
        <trkpt lat="28.2865022" lon="105.0231907"><ele>694.97</ele><time>2026-01-30T00:53:06.000Z</time></trkpt>
        <trkpt lat="28.2865917" lon="105.0232375"><ele>694.59</ele><time>2026-01-30T00:53:14.000Z</time></trkpt>
        <trkpt lat="28.2866497" lon="105.0233161"><ele>694.57</ele><time>2026-01-30T00:53:22.000Z</time></trkpt>
        <trkpt lat="28.2866488" lon="105.0234309"><ele>694.27</ele><time>2026-01-30T00:53:32.000Z</time></trkpt>
        <trkpt lat="28.2866135" lon="105.023539"><ele>693.59</ele><time>2026-01-30T00:53:38.000Z</time></trkpt>
        <trkpt lat="28.2865615" lon="105.0236445"><ele>693.16</ele><time>2026-01-30T00:53:45.000Z</time></trkpt>
        <trkpt lat="28.2864968" lon="105.0237451"><ele>692.94</ele><time>2026-01-30T00:53:54.000Z</time></trkpt>
        <trkpt lat="28.2864325" lon="105.0238386"><ele>692.84</ele><time>2026-01-30T00:54:02.000Z</time></trkpt>
        <trkpt lat="28.2864015" lon="105.0239427"><ele>693.25</ele><time>2026-01-30T00:54:08.000Z</time></trkpt>
        <trkpt lat="28.2864056" lon="105.0240522"><ele>694.23</ele><time>2026-01-30T00:54:17.000Z</time></trkpt>
        <trkpt lat="28.286414" lon="105.024159"><ele>695.35</ele><time>2026-01-30T00:54:27.000Z</time></trkpt>
        <trkpt lat="28.2864245" lon="105.0242705"><ele>695.05</ele><time>2026-01-30T00:54:35.000Z</time></trkpt>
        <trkpt lat="28.2864023" lon="105.024372"><ele>696.96</ele><time>2026-01-30T00:54:45.000Z</time></trkpt>
        <trkpt lat="28.2863705" lon="105.0244747"><ele>697.96</ele><time>2026-01-30T00:54:56.000Z</time></trkpt>
        <trkpt lat="28.2863315" lon="105.0245811"><ele>698.91</ele><time>2026-01-30T00:55:05.000Z</time></trkpt>
        <trkpt lat="28.2862753" lon="105.024688"><ele>699.46</ele><time>2026-01-30T00:55:13.000Z</time></trkpt>
        <trkpt lat="28.286198" lon="105.0247655"><ele>699.51</ele><time>2026-01-30T00:55:22.000Z</time></trkpt>
        <trkpt lat="28.2861738" lon="105.0248743"><ele>699.53</ele><time>2026-01-30T00:55:32.000Z</time></trkpt>
        <trkpt lat="28.2861893" lon="105.0249918"><ele>698.37</ele><time>2026-01-30T00:55:43.000Z</time></trkpt>
        <trkpt lat="28.2862404" lon="105.0250902"><ele>697.81</ele><time>2026-01-30T00:55:49.000Z</time></trkpt>
        <trkpt lat="28.2863168" lon="105.0251679"><ele>700.83</ele><time>2026-01-30T00:55:56.000Z</time></trkpt>
        <trkpt lat="28.2864036" lon="105.0252311"><ele>702.53</ele><time>2026-01-30T00:56:04.000Z</time></trkpt>
        <trkpt lat="28.2864862" lon="105.0253122"><ele>703.26</ele><time>2026-01-30T00:56:12.000Z</time></trkpt>
        <trkpt lat="28.2865664" lon="105.0253736"><ele>703.1</ele><time>2026-01-30T00:56:24.000Z</time></trkpt>
        <trkpt lat="28.286656" lon="105.025394"><ele>701.8</ele><time>2026-01-30T00:56:36.000Z</time></trkpt>
        <trkpt lat="28.2867476" lon="105.0254004"><ele>699.91</ele><time>2026-01-30T00:56:56.000Z</time></trkpt>
        <trkpt lat="28.2868419" lon="105.0253832"><ele>698</ele><time>2026-01-30T00:57:27.000Z</time></trkpt>
        <trkpt lat="28.2869267" lon="105.0253388"><ele>695.92</ele><time>2026-01-30T00:57:32.000Z</time></trkpt>
        <trkpt lat="28.2870173" lon="105.0253124"><ele>694.38</ele><time>2026-01-30T00:57:39.000Z</time></trkpt>
        <trkpt lat="28.287113" lon="105.0252988"><ele>692.41</ele><time>2026-01-30T00:57:45.000Z</time></trkpt>
        <trkpt lat="28.2872219" lon="105.0252714"><ele>685.84</ele><time>2026-01-30T00:57:53.000Z</time></trkpt>
        <trkpt lat="28.2872926" lon="105.0251961"><ele>686.74</ele><time>2026-01-30T00:58:01.000Z</time></trkpt>
        <trkpt lat="28.2873232" lon="105.0250962"><ele>686.54</ele><time>2026-01-30T00:58:11.000Z</time></trkpt>
        <trkpt lat="28.2873427" lon="105.0250116"><ele>685.31</ele><time>2026-01-30T00:58:23.000Z</time></trkpt>
        <trkpt lat="28.2873951" lon="105.0249399"><ele>684.25</ele><time>2026-01-30T00:58:38.000Z</time></trkpt>
        <trkpt lat="28.2874828" lon="105.0248729"><ele>683.87</ele><time>2026-01-30T00:58:47.000Z</time></trkpt>
        <trkpt lat="28.2875839" lon="105.0248418"><ele>684</ele><time>2026-01-30T00:58:55.000Z</time></trkpt>
        <trkpt lat="28.2876699" lon="105.0247797"><ele>684.35</ele><time>2026-01-30T00:59:04.000Z</time></trkpt>
        <trkpt lat="28.2877347" lon="105.0247027"><ele>684.57</ele><time>2026-01-30T00:59:12.000Z</time></trkpt>
        <trkpt lat="28.2878036" lon="105.0246196"><ele>683.88</ele><time>2026-01-30T00:59:32.000Z</time></trkpt>
        <trkpt lat="28.2878735" lon="105.02455"><ele>682.4</ele><time>2026-01-30T00:59:48.000Z</time></trkpt>
        <trkpt lat="28.2879435" lon="105.0244809"><ele>679.85</ele><time>2026-01-30T00:59:58.000Z</time></trkpt>
        <trkpt lat="28.2880171" lon="105.0244114"><ele>676.72</ele><time>2026-01-30T01:00:06.000Z</time></trkpt>
        <trkpt lat="28.2881023" lon="105.0244167"><ele>673.26</ele><time>2026-01-30T01:00:16.000Z</time></trkpt>
        <trkpt lat="28.2881425" lon="105.0245071"><ele>669.65</ele><time>2026-01-30T01:00:24.000Z</time></trkpt>
        <trkpt lat="28.2881513" lon="105.0246217"><ele>668.14</ele><time>2026-01-30T01:00:32.000Z</time></trkpt>
        <trkpt lat="28.2881604" lon="105.0246725"><ele>667.12</ele><time>2026-01-30T01:00:34.000Z</time></trkpt>
        <trkpt lat="28.2882226" lon="105.0247132"><ele>661.94</ele><time>2026-01-30T01:00:38.000Z</time></trkpt>
        <trkpt lat="28.2883179" lon="105.0247436"><ele>658.44</ele><time>2026-01-30T01:00:47.000Z</time></trkpt>
        <trkpt lat="28.2883801" lon="105.0247377"><ele>658.53</ele><time>2026-01-30T01:00:49.000Z</time></trkpt>
        <trkpt lat="28.2884659" lon="105.0247265"><ele>658.49</ele><time>2026-01-30T01:00:57.000Z</time></trkpt>
        <trkpt lat="28.2885624" lon="105.0247214"><ele>655.64</ele><time>2026-01-30T01:01:11.000Z</time></trkpt>
        <trkpt lat="28.2886596" lon="105.0247089"><ele>654.07</ele><time>2026-01-30T01:01:39.000Z</time></trkpt>
        <trkpt lat="28.2887543" lon="105.0247273"><ele>653.11</ele><time>2026-01-30T01:01:48.000Z</time></trkpt>
        <trkpt lat="28.2888229" lon="105.0248038"><ele>651.66</ele><time>2026-01-30T01:02:02.000Z</time></trkpt>
        <trkpt lat="28.2888799" lon="105.0248907"><ele>650.14</ele><time>2026-01-30T01:02:09.000Z</time></trkpt>
        <trkpt lat="28.2889198" lon="105.024992"><ele>648.81</ele><time>2026-01-30T01:02:18.000Z</time></trkpt>
        <trkpt lat="28.2889654" lon="105.0251099"><ele>647.41</ele><time>2026-01-30T01:02:26.000Z</time></trkpt>
        <trkpt lat="28.2889817" lon="105.0252274"><ele>644.81</ele><time>2026-01-30T01:02:35.000Z</time></trkpt>
        <trkpt lat="28.2889385" lon="105.0253187"><ele>642.38</ele><time>2026-01-30T01:02:43.000Z</time></trkpt>
        <trkpt lat="28.2888437" lon="105.0254133"><ele>639.8</ele><time>2026-01-30T01:02:52.000Z</time></trkpt>
        <trkpt lat="28.2887744" lon="105.0255223"><ele>638.27</ele><time>2026-01-30T01:02:59.000Z</time></trkpt>
        <trkpt lat="28.2888056" lon="105.0256215"><ele>637.42</ele><time>2026-01-30T01:03:07.000Z</time></trkpt>
        <trkpt lat="28.2888625" lon="105.0257179"><ele>637.22</ele><time>2026-01-30T01:03:16.000Z</time></trkpt>
        <trkpt lat="28.2889348" lon="105.0258014"><ele>634.74</ele><time>2026-01-30T01:03:22.000Z</time></trkpt>
        <trkpt lat="28.2890091" lon="105.0258753"><ele>634.33</ele><time>2026-01-30T01:03:29.000Z</time></trkpt>
        <trkpt lat="28.2890798" lon="105.0259591"><ele>633.99</ele><time>2026-01-30T01:03:37.000Z</time></trkpt>
        <trkpt lat="28.2891381" lon="105.0260641"><ele>633.64</ele><time>2026-01-30T01:03:46.000Z</time></trkpt>
        <trkpt lat="28.2891712" lon="105.0261719"><ele>633.02</ele><time>2026-01-30T01:03:54.000Z</time></trkpt>
        <trkpt lat="28.2891949" lon="105.0262774"><ele>632.51</ele><time>2026-01-30T01:04:00.000Z</time></trkpt>
        <trkpt lat="28.2892673" lon="105.026326"><ele>632.3</ele><time>2026-01-30T01:04:10.000Z</time></trkpt>
        <trkpt lat="28.2893592" lon="105.0263215"><ele>632.23</ele><time>2026-01-30T01:04:16.000Z</time></trkpt>
        <trkpt lat="28.2894615" lon="105.0263366"><ele>632.11</ele><time>2026-01-30T01:04:24.000Z</time></trkpt>
        <trkpt lat="28.2895595" lon="105.0263543"><ele>633.52</ele><time>2026-01-30T01:04:32.000Z</time></trkpt>
        <trkpt lat="28.2896519" lon="105.0263822"><ele>631.87</ele><time>2026-01-30T01:04:45.000Z</time></trkpt>
        <trkpt lat="28.2897489" lon="105.0264109"><ele>630.67</ele><time>2026-01-30T01:04:53.000Z</time></trkpt>
        <trkpt lat="28.2898401" lon="105.026435"><ele>629.69</ele><time>2026-01-30T01:05:01.000Z</time></trkpt>
        <trkpt lat="28.2899257" lon="105.0264757"><ele>628.58</ele><time>2026-01-30T01:05:06.000Z</time></trkpt>
        <trkpt lat="28.2900123" lon="105.0265295"><ele>627.32</ele><time>2026-01-30T01:05:23.000Z</time></trkpt>
        <trkpt lat="28.2900996" lon="105.0265111"><ele>625.38</ele><time>2026-01-30T01:05:35.000Z</time></trkpt>
        <trkpt lat="28.2901887" lon="105.0264962"><ele>623.43</ele><time>2026-01-30T01:05:45.000Z</time></trkpt>
        <trkpt lat="28.2902337" lon="105.0265627"><ele>621.35</ele><time>2026-01-30T01:05:58.000Z</time></trkpt>
        <trkpt lat="28.2902455" lon="105.0266675"><ele>618.68</ele><time>2026-01-30T01:06:06.000Z</time></trkpt>
        <trkpt lat="28.2902518" lon="105.0267862"><ele>616.49</ele><time>2026-01-30T01:06:17.000Z</time></trkpt>
        <trkpt lat="28.2902512" lon="105.0269085"><ele>614.44</ele><time>2026-01-30T01:06:27.000Z</time></trkpt>
        <trkpt lat="28.2903005" lon="105.027008"><ele>611.86</ele><time>2026-01-30T01:06:35.000Z</time></trkpt>
        <trkpt lat="28.2903864" lon="105.0270481"><ele>609.25</ele><time>2026-01-30T01:06:44.000Z</time></trkpt>
        <trkpt lat="28.290452" lon="105.0271174"><ele>604.49</ele><time>2026-01-30T01:07:00.000Z</time></trkpt>
        <trkpt lat="28.2905176" lon="105.0271886"><ele>603.18</ele><time>2026-01-30T01:07:10.000Z</time></trkpt>
        <trkpt lat="28.2905694" lon="105.0272734"><ele>601.79</ele><time>2026-01-30T01:07:18.000Z</time></trkpt>
        <trkpt lat="28.2906512" lon="105.0273107"><ele>599.73</ele><time>2026-01-30T01:07:29.000Z</time></trkpt>
        <trkpt lat="28.2906804" lon="105.0272301"><ele>597.07</ele><time>2026-01-30T01:07:43.000Z</time></trkpt>
        <trkpt lat="28.2906538" lon="105.0271186"><ele>592.97</ele><time>2026-01-30T01:07:50.000Z</time></trkpt>
        <trkpt lat="28.2906597" lon="105.0270027"><ele>589.96</ele><time>2026-01-30T01:08:03.000Z</time></trkpt>
        <trkpt lat="28.2907263" lon="105.0269465"><ele>587.73</ele><time>2026-01-30T01:08:15.000Z</time></trkpt>
        <trkpt lat="28.2908191" lon="105.0269201"><ele>585.47</ele><time>2026-01-30T01:08:31.000Z</time></trkpt>
        <trkpt lat="28.2909217" lon="105.0268984"><ele>582.95</ele><time>2026-01-30T01:08:38.000Z</time></trkpt>
        <trkpt lat="28.2909743" lon="105.0269753"><ele>580.43</ele><time>2026-01-30T01:08:55.000Z</time></trkpt>
        <trkpt lat="28.2910576" lon="105.02701"><ele>578.12</ele><time>2026-01-30T01:09:53.000Z</time></trkpt>
        <trkpt lat="28.2911299" lon="105.02708"><ele>576.35</ele><time>2026-01-30T01:10:12.000Z</time></trkpt>
        <trkpt lat="28.2912112" lon="105.0271337"><ele>574.22</ele><time>2026-01-30T01:10:25.000Z</time></trkpt>
        <trkpt lat="28.291283" lon="105.0270955"><ele>571.42</ele><time>2026-01-30T01:10:36.000Z</time></trkpt>
        <trkpt lat="28.2913638" lon="105.0270447"><ele>568.18</ele><time>2026-01-30T01:10:46.000Z</time></trkpt>
        <trkpt lat="28.2914334" lon="105.0269606"><ele>566.09</ele><time>2026-01-30T01:10:53.000Z</time></trkpt>
        <trkpt lat="28.2915287" lon="105.0269441"><ele>563.46</ele><time>2026-01-30T01:11:05.000Z</time></trkpt>
        <trkpt lat="28.2916218" lon="105.0269075"><ele>559.19</ele><time>2026-01-30T01:11:22.000Z</time></trkpt>
        <trkpt lat="28.291717" lon="105.0269083"><ele>552.98</ele><time>2026-01-30T01:11:29.000Z</time></trkpt>
        <trkpt lat="28.2917989" lon="105.0269564"><ele>548.24</ele><time>2026-01-30T01:11:41.000Z</time></trkpt>
        <trkpt lat="28.2918537" lon="105.0270448"><ele>543.56</ele><time>2026-01-30T01:11:55.000Z</time></trkpt>
        <trkpt lat="28.2919046" lon="105.0271387"><ele>539.58</ele><time>2026-01-30T01:12:06.000Z</time></trkpt>
        <trkpt lat="28.2919782" lon="105.0272008"><ele>536.49</ele><time>2026-01-30T01:12:41.000Z</time></trkpt>
        <trkpt lat="28.2920731" lon="105.0272113"><ele>533.46</ele><time>2026-01-30T01:12:51.000Z</time></trkpt>
        <trkpt lat="28.2921879" lon="105.0271866"><ele>529.23</ele><time>2026-01-30T01:13:01.000Z</time></trkpt>
        <trkpt lat="28.2922871" lon="105.0271402"><ele>528.03</ele><time>2026-01-30T01:13:10.000Z</time></trkpt>
        <trkpt lat="28.2923763" lon="105.0271462"><ele>526.08</ele><time>2026-01-30T01:13:19.000Z</time></trkpt>
        <trkpt lat="28.292453" lon="105.0271971"><ele>524.56</ele><time>2026-01-30T01:13:25.000Z</time></trkpt>
        <trkpt lat="28.2925257" lon="105.0272709"><ele>523.89</ele><time>2026-01-30T01:13:32.000Z</time></trkpt>
        <trkpt lat="28.2925961" lon="105.0273461"><ele>523.34</ele><time>2026-01-30T01:13:41.000Z</time></trkpt>
        <trkpt lat="28.2926222" lon="105.0274322"><ele>522.66</ele><time>2026-01-30T01:13:58.000Z</time></trkpt>
        <trkpt lat="28.2926543" lon="105.0275255"><ele>520.76</ele><time>2026-01-30T01:14:15.000Z</time></trkpt>
        <trkpt lat="28.2927095" lon="105.0276057"><ele>519.26</ele><time>2026-01-30T01:14:23.000Z</time></trkpt>
        <trkpt lat="28.2927684" lon="105.0276913"><ele>518</ele><time>2026-01-30T01:14:32.000Z</time></trkpt>
        <trkpt lat="28.292833" lon="105.0277718"><ele>516.38</ele><time>2026-01-30T01:14:38.000Z</time></trkpt>
        <trkpt lat="28.2928966" lon="105.0278506"><ele>514.44</ele><time>2026-01-30T01:14:46.000Z</time></trkpt>
        <trkpt lat="28.2929735" lon="105.0279085"><ele>512.98</ele><time>2026-01-30T01:14:54.000Z</time></trkpt>
        <trkpt lat="28.2930606" lon="105.027957"><ele>512.26</ele><time>2026-01-30T01:15:03.000Z</time></trkpt>
        <trkpt lat="28.2931426" lon="105.0280107"><ele>511.01</ele><time>2026-01-30T01:15:12.000Z</time></trkpt>
        <trkpt lat="28.293227" lon="105.0279753"><ele>509.53</ele><time>2026-01-30T01:15:23.000Z</time></trkpt>
        <trkpt lat="28.2932966" lon="105.0280154"><ele>508.13</ele><time>2026-01-30T01:15:37.000Z</time></trkpt>
        <trkpt lat="28.2933191" lon="105.0281088"><ele>507.02</ele><time>2026-01-30T01:15:44.000Z</time></trkpt>
        <trkpt lat="28.2933352" lon="105.0282168"><ele>505.79</ele><time>2026-01-30T01:15:52.000Z</time></trkpt>
        <trkpt lat="28.2933186" lon="105.0283261"><ele>504.86</ele><time>2026-01-30T01:16:01.000Z</time></trkpt>
        <trkpt lat="28.2932624" lon="105.0284168"><ele>503.93</ele><time>2026-01-30T01:16:14.000Z</time></trkpt>
        <trkpt lat="28.2932564" lon="105.0285204"><ele>504.18</ele><time>2026-01-30T01:16:24.000Z</time></trkpt>
        <trkpt lat="28.2932637" lon="105.028629"><ele>502.72</ele><time>2026-01-30T01:16:36.000Z</time></trkpt>
        <trkpt lat="28.2932637" lon="105.0287417"><ele>500.76</ele><time>2026-01-30T01:16:47.000Z</time></trkpt>
        <trkpt lat="28.2933194" lon="105.0288157"><ele>498.52</ele><time>2026-01-30T01:16:56.000Z</time></trkpt>
        <trkpt lat="28.2933547" lon="105.0289052"><ele>496.73</ele><time>2026-01-30T01:17:18.000Z</time></trkpt>
        <trkpt lat="28.2934327" lon="105.0289377"><ele>493.77</ele><time>2026-01-30T01:17:31.000Z</time></trkpt>
        <trkpt lat="28.2935133" lon="105.0289847"><ele>490.63</ele><time>2026-01-30T01:17:48.000Z</time></trkpt>
        <trkpt lat="28.2936143" lon="105.028974"><ele>487.15</ele><time>2026-01-30T01:17:59.000Z</time></trkpt>
        <trkpt lat="28.2937116" lon="105.0289629"><ele>484.32</ele><time>2026-01-30T01:18:09.000Z</time></trkpt>
        <trkpt lat="28.2938078" lon="105.0289612"><ele>481.98</ele><time>2026-01-30T01:18:20.000Z</time></trkpt>
        <trkpt lat="28.2938608" lon="105.0290293"><ele>479.33</ele><time>2026-01-30T01:18:55.000Z</time></trkpt>
        <trkpt lat="28.2938622" lon="105.0291326"><ele>475.81</ele><time>2026-01-30T01:19:04.000Z</time></trkpt>
        <trkpt lat="28.2938419" lon="105.0292464"><ele>472.02</ele><time>2026-01-30T01:19:21.000Z</time></trkpt>
        <trkpt lat="28.2938254" lon="105.029357"><ele>468.66</ele><time>2026-01-30T01:20:14.000Z</time></trkpt>
        <trkpt lat="28.2938809" lon="105.0294512"><ele>464.62</ele><time>2026-01-30T01:20:23.000Z</time></trkpt>
        <trkpt lat="28.293966" lon="105.0295193"><ele>461.41</ele><time>2026-01-30T01:20:38.000Z</time></trkpt>
        <trkpt lat="28.2940429" lon="105.029588"><ele>457.49</ele><time>2026-01-30T01:21:30.000Z</time></trkpt>
        <trkpt lat="28.294103" lon="105.02967"><ele>453.35</ele><time>2026-01-30T01:21:44.000Z</time></trkpt>
        <trkpt lat="28.2941657" lon="105.0297465"><ele>449.04</ele><time>2026-01-30T01:21:57.000Z</time></trkpt>
        <trkpt lat="28.2941733" lon="105.0298471"><ele>445.39</ele><time>2026-01-30T01:22:17.000Z</time></trkpt>
        <trkpt lat="28.2941958" lon="105.0299482"><ele>442.06</ele><time>2026-01-30T01:22:42.000Z</time></trkpt>
        <trkpt lat="28.2942336" lon="105.0300423"><ele>438.54</ele><time>2026-01-30T01:22:51.000Z</time></trkpt>
        <trkpt lat="28.2941739" lon="105.0300896"><ele>435.6</ele><time>2026-01-30T01:23:09.000Z</time></trkpt>
        <trkpt lat="28.2941102" lon="105.0301628"><ele>433.85</ele><time>2026-01-30T01:23:32.000Z</time></trkpt>
        <trkpt lat="28.2940661" lon="105.0302559"><ele>430.71</ele><time>2026-01-30T01:23:59.000Z</time></trkpt>
        <trkpt lat="28.2940845" lon="105.0303499"><ele>427.29</ele><time>2026-01-30T01:24:17.000Z</time></trkpt>
        <trkpt lat="28.2941517" lon="105.0304367"><ele>423.3</ele><time>2026-01-30T01:24:29.000Z</time></trkpt>
        <trkpt lat="28.2942275" lon="105.0305127"><ele>419.58</ele><time>2026-01-30T01:24:41.000Z</time></trkpt>
        <trkpt lat="28.2943106" lon="105.0305813"><ele>415.25</ele><time>2026-01-30T01:24:53.000Z</time></trkpt>
        <trkpt lat="28.2943786" lon="105.0306587"><ele>410.78</ele><time>2026-01-30T01:25:07.000Z</time></trkpt>
        <trkpt lat="28.2944533" lon="105.0307305"><ele>405.14</ele><time>2026-01-30T01:25:36.000Z</time></trkpt>
        <trkpt lat="28.2945223" lon="105.0308172"><ele>400.83</ele><time>2026-01-30T01:25:47.000Z</time></trkpt>
        <trkpt lat="28.2945887" lon="105.0309011"><ele>397.86</ele><time>2026-01-30T01:25:59.000Z</time></trkpt>
        <trkpt lat="28.2946735" lon="105.03095"><ele>392.11</ele><time>2026-01-30T01:26:18.000Z</time></trkpt>
        <trkpt lat="28.2947522" lon="105.0310046"><ele>386.28</ele><time>2026-01-30T01:26:27.000Z</time></trkpt>
        <trkpt lat="28.2947638" lon="105.031094"><ele>381.82</ele><time>2026-01-30T01:26:50.000Z</time></trkpt>
        <trkpt lat="28.2948071" lon="105.0311739"><ele>378.9</ele><time>2026-01-30T01:27:05.000Z</time></trkpt>
        <trkpt lat="28.2948895" lon="105.03118"><ele>375.43</ele><time>2026-01-30T01:27:17.000Z</time></trkpt>
        <trkpt lat="28.2949508" lon="105.0312381"><ele>372.99</ele><time>2026-01-30T01:28:07.000Z</time></trkpt>
        <trkpt lat="28.2950162" lon="105.0313123"><ele>370.72</ele><time>2026-01-30T01:28:22.000Z</time></trkpt>
        <trkpt lat="28.2950939" lon="105.0312985"><ele>369.33</ele><time>2026-01-30T01:28:32.000Z</time></trkpt>
        <trkpt lat="28.2951709" lon="105.0312429"><ele>368.97</ele><time>2026-01-30T01:28:39.000Z</time></trkpt>
        <trkpt lat="28.2952528" lon="105.0311867"><ele>367.73</ele><time>2026-01-30T01:28:47.000Z</time></trkpt>
        <trkpt lat="28.2953074" lon="105.0311541"><ele>365.67</ele><time>2026-01-30T01:28:52.000Z</time></trkpt>
        <trkpt lat="28.2953864" lon="105.0311294"><ele>366.2</ele><time>2026-01-30T01:29:02.000Z</time></trkpt>
        <trkpt lat="28.2954565" lon="105.0311803"><ele>365.9</ele><time>2026-01-30T01:29:11.000Z</time></trkpt>
        <trkpt lat="28.2954916" lon="105.0312764"><ele>364.69</ele><time>2026-01-30T01:29:19.000Z</time></trkpt>
        <trkpt lat="28.2955312" lon="105.0313873"><ele>363.32</ele><time>2026-01-30T01:29:27.000Z</time></trkpt>
        <trkpt lat="28.2955645" lon="105.0315025"><ele>361.83</ele><time>2026-01-30T01:29:35.000Z</time></trkpt>
        <trkpt lat="28.2956077" lon="105.0316061"><ele>360.84</ele><time>2026-01-30T01:29:43.000Z</time></trkpt>
        <trkpt lat="28.2956447" lon="105.0317048"><ele>359.55</ele><time>2026-01-30T01:29:52.000Z</time></trkpt>
        <trkpt lat="28.2956662" lon="105.031818"><ele>358.83</ele><time>2026-01-30T01:30:01.000Z</time></trkpt>
        <trkpt lat="28.2956651" lon="105.0319249"><ele>357.7</ele><time>2026-01-30T01:30:10.000Z</time></trkpt>
        <trkpt lat="28.2956116" lon="105.0320244"><ele>357.09</ele><time>2026-01-30T01:30:19.000Z</time></trkpt>
        <trkpt lat="28.2955814" lon="105.0321285"><ele>357.72</ele><time>2026-01-30T01:30:28.000Z</time></trkpt>
        <trkpt lat="28.2956142" lon="105.0322203"><ele>360.53</ele><time>2026-01-30T01:30:36.000Z</time></trkpt>
        <trkpt lat="28.2956869" lon="105.032301"><ele>361.8</ele><time>2026-01-30T01:30:46.000Z</time></trkpt>
        <trkpt lat="28.2957432" lon="105.0323904"><ele>362.7</ele><time>2026-01-30T01:30:55.000Z</time></trkpt>
        <trkpt lat="28.2957894" lon="105.032493"><ele>364.02</ele><time>2026-01-30T01:31:05.000Z</time></trkpt>
        <trkpt lat="28.2958237" lon="105.0325979"><ele>364.73</ele><time>2026-01-30T01:31:14.000Z</time></trkpt>
        <trkpt lat="28.2958113" lon="105.0326997"><ele>365.31</ele><time>2026-01-30T01:31:25.000Z</time></trkpt>
        <trkpt lat="28.2958018" lon="105.0328027"><ele>363.55</ele><time>2026-01-30T01:31:31.000Z</time></trkpt>
        <trkpt lat="28.2958236" lon="105.0329045"><ele>364.69</ele><time>2026-01-30T01:31:41.000Z</time></trkpt>
        <trkpt lat="28.2958725" lon="105.0329977"><ele>365.9</ele><time>2026-01-30T01:31:50.000Z</time></trkpt>
        <trkpt lat="28.295944" lon="105.0329684"><ele>367.16</ele><time>2026-01-30T01:32:01.000Z</time></trkpt>
        <trkpt lat="28.2959796" lon="105.0328654"><ele>369.46</ele><time>2026-01-30T01:32:13.000Z</time></trkpt>
        <trkpt lat="28.2959796" lon="105.0328654"><ele>369.46</ele><time>2026-01-30T01:32:15.000Z</time></trkpt>
      </trkseg>
      <trkseg>
        <trkpt lat="28.2879036" lon="105.0376845"><ele>452.15</ele><time>2026-01-30T01:51:44.000Z</time></trkpt>
        <trkpt lat="28.2879673" lon="105.0377217"><ele>452.15</ele><time>2026-01-30T01:52:02.000Z</time></trkpt>
        <trkpt lat="28.288057" lon="105.0377265"><ele>450.35</ele><time>2026-01-30T01:52:14.000Z</time></trkpt>
        <trkpt lat="28.2881362" lon="105.0377832"><ele>447.65</ele><time>2026-01-30T01:52:26.000Z</time></trkpt>
        <trkpt lat="28.2881928" lon="105.0378908"><ele>442.93</ele><time>2026-01-30T01:52:38.000Z</time></trkpt>
        <trkpt lat="28.288239" lon="105.0379963"><ele>436.47</ele><time>2026-01-30T01:52:48.000Z</time></trkpt>
        <trkpt lat="28.2883114" lon="105.038081"><ele>432.04</ele><time>2026-01-30T01:53:00.000Z</time></trkpt>
        <trkpt lat="28.2883992" lon="105.0381124"><ele>428.18</ele><time>2026-01-30T01:53:07.000Z</time></trkpt>
        <trkpt lat="28.288478" lon="105.0381726"><ele>423.54</ele><time>2026-01-30T01:53:25.000Z</time></trkpt>
        <trkpt lat="28.2885271" lon="105.0382616"><ele>414.64</ele><time>2026-01-30T01:53:40.000Z</time></trkpt>
        <trkpt lat="28.2885664" lon="105.0383627"><ele>406.39</ele><time>2026-01-30T01:53:49.000Z</time></trkpt>
        <trkpt lat="28.2886024" lon="105.0384623"><ele>400.9</ele><time>2026-01-30T01:54:04.000Z</time></trkpt>
        <trkpt lat="28.2886281" lon="105.0385632"><ele>397.33</ele><time>2026-01-30T01:54:14.000Z</time></trkpt>
        <trkpt lat="28.2886835" lon="105.0386442"><ele>394.84</ele><time>2026-01-30T01:54:26.000Z</time></trkpt>
        <trkpt lat="28.2887326" lon="105.0387329"><ele>392.87</ele><time>2026-01-30T01:54:43.000Z</time></trkpt>
        <trkpt lat="28.2887945" lon="105.0388082"><ele>390.68</ele><time>2026-01-30T01:54:52.000Z</time></trkpt>
        <trkpt lat="28.2888636" lon="105.0388951"><ele>388.98</ele><time>2026-01-30T01:54:59.000Z</time></trkpt>
        <trkpt lat="28.2889431" lon="105.0389698"><ele>389.78</ele><time>2026-01-30T01:55:08.000Z</time></trkpt>
        <trkpt lat="28.2889497" lon="105.0390728"><ele>387.81</ele><time>2026-01-30T01:55:24.000Z</time></trkpt>
        <trkpt lat="28.2888849" lon="105.0391503"><ele>388.23</ele><time>2026-01-30T01:55:34.000Z</time></trkpt>
        <trkpt lat="28.2888226" lon="105.0392397"><ele>392.93</ele><time>2026-01-30T01:55:42.000Z</time></trkpt>
        <trkpt lat="28.2887985" lon="105.0392669"><ele>395.61</ele><time>2026-01-30T01:55:43.000Z</time></trkpt>
        <trkpt lat="28.2887452" lon="105.0393286"><ele>397.14</ele><time>2026-01-30T01:56:02.000Z</time></trkpt>
        <trkpt lat="28.288666" lon="105.0393725"><ele>395.85</ele><time>2026-01-30T01:56:10.000Z</time></trkpt>
        <trkpt lat="28.2885806" lon="105.0394162"><ele>396.04</ele><time>2026-01-30T01:56:18.000Z</time></trkpt>
        <trkpt lat="28.2884888" lon="105.0394123"><ele>396.91</ele><time>2026-01-30T01:56:28.000Z</time></trkpt>
        <trkpt lat="28.2883882" lon="105.0393945"><ele>402.05</ele><time>2026-01-30T01:56:37.000Z</time></trkpt>
        <trkpt lat="28.2883278" lon="105.0393604"><ele>405.05</ele><time>2026-01-30T01:56:45.000Z</time></trkpt>
        <trkpt lat="28.2882559" lon="105.0393093"><ele>402.04</ele><time>2026-01-30T01:56:56.000Z</time></trkpt>
        <trkpt lat="28.288189" lon="105.0393481"><ele>401.43</ele><time>2026-01-30T01:57:53.000Z</time></trkpt>
        <trkpt lat="28.2881125" lon="105.0393324"><ele>401.41</ele><time>2026-01-30T01:58:02.000Z</time></trkpt>
        <trkpt lat="28.2880145" lon="105.0393385"><ele>401.68</ele><time>2026-01-30T01:58:36.000Z</time></trkpt>
        <trkpt lat="28.2879197" lon="105.0393516"><ele>402.1</ele><time>2026-01-30T01:58:41.000Z</time></trkpt>
        <trkpt lat="28.2878264" lon="105.0393669"><ele>402.92</ele><time>2026-01-30T01:58:46.000Z</time></trkpt>
        <trkpt lat="28.2877229" lon="105.0394163"><ele>403.6</ele><time>2026-01-30T01:58:52.000Z</time></trkpt>
        <trkpt lat="28.2876268" lon="105.0394883"><ele>406.16</ele><time>2026-01-30T01:59:00.000Z</time></trkpt>
        <trkpt lat="28.2875651" lon="105.0395798"><ele>407.79</ele><time>2026-01-30T01:59:05.000Z</time></trkpt>
        <trkpt lat="28.2875177" lon="105.0396789"><ele>408.27</ele><time>2026-01-30T01:59:12.000Z</time></trkpt>
        <trkpt lat="28.2874561" lon="105.0397787"><ele>408.52</ele><time>2026-01-30T01:59:21.000Z</time></trkpt>
        <trkpt lat="28.2873814" lon="105.0398463"><ele>408.67</ele><time>2026-01-30T01:59:29.000Z</time></trkpt>
        <trkpt lat="28.2872675" lon="105.0398513"><ele>408.75</ele><time>2026-01-30T01:59:35.000Z</time></trkpt>
        <trkpt lat="28.2871829" lon="105.0398315"><ele>408.56</ele><time>2026-01-30T01:59:40.000Z</time></trkpt>
        <trkpt lat="28.2870925" lon="105.0398316"><ele>408.12</ele><time>2026-01-30T01:59:46.000Z</time></trkpt>
        <trkpt lat="28.2869997" lon="105.0398397"><ele>407.56</ele><time>2026-01-30T01:59:51.000Z</time></trkpt>
        <trkpt lat="28.286892" lon="105.0398666"><ele>407.36</ele><time>2026-01-30T01:59:59.000Z</time></trkpt>
        <trkpt lat="28.2867767" lon="105.0399093"><ele>406.57</ele><time>2026-01-30T02:00:06.000Z</time></trkpt>
        <trkpt lat="28.2866862" lon="105.0399781"><ele>405.65</ele><time>2026-01-30T02:00:11.000Z</time></trkpt>
        <trkpt lat="28.2866294" lon="105.0400739"><ele>405.18</ele><time>2026-01-30T02:00:18.000Z</time></trkpt>
        <trkpt lat="28.286582" lon="105.0401679"><ele>404.95</ele><time>2026-01-30T02:00:25.000Z</time></trkpt>
        <trkpt lat="28.2865347" lon="105.0402597"><ele>404.83</ele><time>2026-01-30T02:00:31.000Z</time></trkpt>
        <trkpt lat="28.2864803" lon="105.0403438"><ele>404.53</ele><time>2026-01-30T02:00:36.000Z</time></trkpt>
        <trkpt lat="28.2864147" lon="105.0404253"><ele>404.34</ele><time>2026-01-30T02:00:44.000Z</time></trkpt>
        <trkpt lat="28.2863428" lon="105.0404946"><ele>404.61</ele><time>2026-01-30T02:00:51.000Z</time></trkpt>
        <trkpt lat="28.2862612" lon="105.0405502"><ele>404.75</ele><time>2026-01-30T02:00:57.000Z</time></trkpt>
        <trkpt lat="28.2861725" lon="105.0406"><ele>404.85</ele><time>2026-01-30T02:01:05.000Z</time></trkpt>
        <trkpt lat="28.2860848" lon="105.04064"><ele>404.98</ele><time>2026-01-30T02:01:12.000Z</time></trkpt>
        <trkpt lat="28.2859967" lon="105.0406827"><ele>405.17</ele><time>2026-01-30T02:01:20.000Z</time></trkpt>
        <trkpt lat="28.2858925" lon="105.0407187"><ele>405.02</ele><time>2026-01-30T02:01:26.000Z</time></trkpt>
        <trkpt lat="28.285795" lon="105.0407049"><ele>404.73</ele><time>2026-01-30T02:01:33.000Z</time></trkpt>
        <trkpt lat="28.2857248" lon="105.0406293"><ele>404.73</ele><time>2026-01-30T02:01:38.000Z</time></trkpt>
        <trkpt lat="28.2856672" lon="105.0405354"><ele>404.11</ele><time>2026-01-30T02:01:46.000Z</time></trkpt>
        <trkpt lat="28.2855592" lon="105.0405128"><ele>403.7</ele><time>2026-01-30T02:01:52.000Z</time></trkpt>
        <trkpt lat="28.2854614" lon="105.0405314"><ele>403.28</ele><time>2026-01-30T02:01:57.000Z</time></trkpt>
        <trkpt lat="28.2853655" lon="105.040539"><ele>403.47</ele><time>2026-01-30T02:02:04.000Z</time></trkpt>
        <trkpt lat="28.2852779" lon="105.0405802"><ele>404.05</ele><time>2026-01-30T02:02:10.000Z</time></trkpt>
        <trkpt lat="28.2851856" lon="105.0406055"><ele>405.05</ele><time>2026-01-30T02:02:17.000Z</time></trkpt>
        <trkpt lat="28.2850975" lon="105.0406555"><ele>406.04</ele><time>2026-01-30T02:02:26.000Z</time></trkpt>
        <trkpt lat="28.284994" lon="105.0406663"><ele>406.65</ele><time>2026-01-30T02:02:41.000Z</time></trkpt>
        <trkpt lat="28.2848904" lon="105.0406661"><ele>407</ele><time>2026-01-30T02:02:59.000Z</time></trkpt>
        <trkpt lat="28.2848053" lon="105.0407111"><ele>407.2</ele><time>2026-01-30T02:03:06.000Z</time></trkpt>
        <trkpt lat="28.2847167" lon="105.0407625"><ele>407.31</ele><time>2026-01-30T02:03:13.000Z</time></trkpt>
        <trkpt lat="28.2846203" lon="105.0408003"><ele>407.37</ele><time>2026-01-30T02:03:21.000Z</time></trkpt>
        <trkpt lat="28.2845157" lon="105.0408489"><ele>407.41</ele><time>2026-01-30T02:03:26.000Z</time></trkpt>
        <trkpt lat="28.2842835" lon="105.040985"><ele>407.43</ele><time>2026-01-30T02:03:30.000Z</time></trkpt>
        <trkpt lat="28.2841342" lon="105.041056"><ele>398.46</ele><time>2026-01-30T02:03:38.000Z</time></trkpt>
        <trkpt lat="28.2840321" lon="105.0411002"><ele>393.17</ele><time>2026-01-30T02:03:45.000Z</time></trkpt>
        <trkpt lat="28.2839401" lon="105.0411424"><ele>390.13</ele><time>2026-01-30T02:03:53.000Z</time></trkpt>
        <trkpt lat="28.2838556" lon="105.041171"><ele>388.51</ele><time>2026-01-30T02:03:59.000Z</time></trkpt>
        <trkpt lat="28.2837785" lon="105.0412123"><ele>387.54</ele><time>2026-01-30T02:04:06.000Z</time></trkpt>
        <trkpt lat="28.2836963" lon="105.0412641"><ele>387.21</ele><time>2026-01-30T02:04:13.000Z</time></trkpt>
        <trkpt lat="28.2836104" lon="105.04132"><ele>387.08</ele><time>2026-01-30T02:04:20.000Z</time></trkpt>
        <trkpt lat="28.2835195" lon="105.0413599"><ele>388</ele><time>2026-01-30T02:04:24.000Z</time></trkpt>
        <trkpt lat="28.2834239" lon="105.0413914"><ele>388.79</ele><time>2026-01-30T02:04:31.000Z</time></trkpt>
        <trkpt lat="28.2833439" lon="105.0414531"><ele>389.63</ele><time>2026-01-30T02:04:38.000Z</time></trkpt>
        <trkpt lat="28.2832366" lon="105.0415315"><ele>390.53</ele><time>2026-01-30T02:04:47.000Z</time></trkpt>
        <trkpt lat="28.2831443" lon="105.0415895"><ele>391.15</ele><time>2026-01-30T02:04:54.000Z</time></trkpt>
        <trkpt lat="28.2830745" lon="105.0416603"><ele>391.92</ele><time>2026-01-30T02:05:00.000Z</time></trkpt>
        <trkpt lat="28.283028" lon="105.0417581"><ele>392.59</ele><time>2026-01-30T02:05:07.000Z</time></trkpt>
        <trkpt lat="28.2829891" lon="105.041855"><ele>393.5</ele><time>2026-01-30T02:05:13.000Z</time></trkpt>
        <trkpt lat="28.2829264" lon="105.0419506"><ele>393.9</ele><time>2026-01-30T02:05:19.000Z</time></trkpt>
        <trkpt lat="28.2828619" lon="105.042038"><ele>394.12</ele><time>2026-01-30T02:05:26.000Z</time></trkpt>
        <trkpt lat="28.2828515" lon="105.0421394"><ele>394.65</ele><time>2026-01-30T02:05:39.000Z</time></trkpt>
        <trkpt lat="28.2828731" lon="105.0422412"><ele>398.09</ele><time>2026-01-30T02:05:46.000Z</time></trkpt>
        <trkpt lat="28.282881" lon="105.0423523"><ele>394.27</ele><time>2026-01-30T02:05:55.000Z</time></trkpt>
        <trkpt lat="28.2828516" lon="105.0424626"><ele>392.51</ele><time>2026-01-30T02:06:03.000Z</time></trkpt>
        <trkpt lat="28.2827952" lon="105.0425575"><ele>394.89</ele><time>2026-01-30T02:06:08.000Z</time></trkpt>
        <trkpt lat="28.2827601" lon="105.0426563"><ele>395.81</ele><time>2026-01-30T02:06:16.000Z</time></trkpt>
        <trkpt lat="28.282755" lon="105.0427603"><ele>395.41</ele><time>2026-01-30T02:06:23.000Z</time></trkpt>
        <trkpt lat="28.2827703" lon="105.0428666"><ele>392.35</ele><time>2026-01-30T02:06:45.000Z</time></trkpt>
        <trkpt lat="28.2827189" lon="105.0429348"><ele>394.24</ele><time>2026-01-30T02:07:00.000Z</time></trkpt>
        <trkpt lat="28.2826304" lon="105.0429209"><ele>396.26</ele><time>2026-01-30T02:07:12.000Z</time></trkpt>
        <trkpt lat="28.2825408" lon="105.0428613"><ele>404.74</ele><time>2026-01-30T02:07:18.000Z</time></trkpt>
        <trkpt lat="28.2824467" lon="105.0428057"><ele>408.03</ele><time>2026-01-30T02:07:31.000Z</time></trkpt>
        <trkpt lat="28.282359" lon="105.0427433"><ele>407.08</ele><time>2026-01-30T02:07:48.000Z</time></trkpt>
        <trkpt lat="28.282274" lon="105.0426803"><ele>408.14</ele><time>2026-01-30T02:07:54.000Z</time></trkpt>
        <trkpt lat="28.282198" lon="105.0426037"><ele>406.32</ele><time>2026-01-30T02:08:09.000Z</time></trkpt>
        <trkpt lat="28.2821312" lon="105.0425645"><ele>408.38</ele><time>2026-01-30T02:08:22.000Z</time></trkpt>
        <trkpt lat="28.2820655" lon="105.0425003"><ele>405.86</ele><time>2026-01-30T02:08:57.000Z</time></trkpt>
        <trkpt lat="28.2820016" lon="105.0424247"><ele>404.21</ele><time>2026-01-30T02:09:05.000Z</time></trkpt>
        <trkpt lat="28.2819268" lon="105.0423604"><ele>403.67</ele><time>2026-01-30T02:09:19.000Z</time></trkpt>
        <trkpt lat="28.2818353" lon="105.0423096"><ele>404.54</ele><time>2026-01-30T02:09:29.000Z</time></trkpt>
        <trkpt lat="28.2817384" lon="105.0422881"><ele>405.94</ele><time>2026-01-30T02:09:36.000Z</time></trkpt>
        <trkpt lat="28.281632" lon="105.0423022"><ele>406.76</ele><time>2026-01-30T02:09:42.000Z</time></trkpt>
        <trkpt lat="28.2815641" lon="105.042401"><ele>414.83</ele><time>2026-01-30T02:09:47.000Z</time></trkpt>
        <trkpt lat="28.28151" lon="105.0425019"><ele>420.17</ele><time>2026-01-30T02:09:53.000Z</time></trkpt>
        <trkpt lat="28.2815487" lon="105.0424791"><ele>424.24</ele><time>2026-01-30T02:10:01.000Z</time></trkpt>
        <trkpt lat="28.2815779" lon="105.0425568"><ele>419.7</ele><time>2026-01-30T02:10:11.000Z</time></trkpt>
        <trkpt lat="28.2815608" lon="105.0426516"><ele>418.28</ele><time>2026-01-30T02:10:19.000Z</time></trkpt>
        <trkpt lat="28.2815133" lon="105.0427427"><ele>418.08</ele><time>2026-01-30T02:10:30.000Z</time></trkpt>
        <trkpt lat="28.2814768" lon="105.0428452"><ele>423.43</ele><time>2026-01-30T02:10:35.000Z</time></trkpt>
        <trkpt lat="28.281422" lon="105.0429454"><ele>426.36</ele><time>2026-01-30T02:10:46.000Z</time></trkpt>
        <trkpt lat="28.2813697" lon="105.0430462"><ele>427.83</ele><time>2026-01-30T02:10:52.000Z</time></trkpt>
        <trkpt lat="28.2812876" lon="105.0431049"><ele>428.05</ele><time>2026-01-30T02:11:00.000Z</time></trkpt>
        <trkpt lat="28.2811891" lon="105.0431233"><ele>426.07</ele><time>2026-01-30T02:11:05.000Z</time></trkpt>
        <trkpt lat="28.2811085" lon="105.0431845"><ele>425</ele><time>2026-01-30T02:11:15.000Z</time></trkpt>
        <trkpt lat="28.2810556" lon="105.0432909"><ele>422.62</ele><time>2026-01-30T02:11:26.000Z</time></trkpt>
        <trkpt lat="28.2810159" lon="105.0433967"><ele>420.42</ele><time>2026-01-30T02:11:32.000Z</time></trkpt>
        <trkpt lat="28.280949" lon="105.043486"><ele>418.21</ele><time>2026-01-30T02:11:40.000Z</time></trkpt>
        <trkpt lat="28.2808936" lon="105.0435771"><ele>416.21</ele><time>2026-01-30T02:11:47.000Z</time></trkpt>
        <trkpt lat="28.2808322" lon="105.0436576"><ele>414.78</ele><time>2026-01-30T02:11:52.000Z</time></trkpt>
        <trkpt lat="28.2807715" lon="105.0437431"><ele>412.32</ele><time>2026-01-30T02:12:00.000Z</time></trkpt>
        <trkpt lat="28.2807093" lon="105.0438249"><ele>409.76</ele><time>2026-01-30T02:12:07.000Z</time></trkpt>
        <trkpt lat="28.2806483" lon="105.0439112"><ele>407.47</ele><time>2026-01-30T02:12:14.000Z</time></trkpt>
        <trkpt lat="28.2805929" lon="105.0440006"><ele>405.63</ele><time>2026-01-30T02:12:21.000Z</time></trkpt>
        <trkpt lat="28.2805562" lon="105.0440987"><ele>403.84</ele><time>2026-01-30T02:12:29.000Z</time></trkpt>
        <trkpt lat="28.280481" lon="105.0440953"><ele>402.2</ele><time>2026-01-30T02:12:43.000Z</time></trkpt>
        <trkpt lat="28.2804975" lon="105.0441571"><ele>403.75</ele><time>2026-01-30T02:12:53.000Z</time></trkpt>
        <trkpt lat="28.2804839" lon="105.044245"><ele>404.02</ele><time>2026-01-30T02:12:59.000Z</time></trkpt>
        <trkpt lat="28.2804547" lon="105.0443508"><ele>403.83</ele><time>2026-01-30T02:13:07.000Z</time></trkpt>
        <trkpt lat="28.2804158" lon="105.0444556"><ele>400.85</ele><time>2026-01-30T02:13:20.000Z</time></trkpt>
        <trkpt lat="28.2803975" lon="105.044573"><ele>399.09</ele><time>2026-01-30T02:13:37.000Z</time></trkpt>
        <trkpt lat="28.2803777" lon="105.0446933"><ele>398.01</ele><time>2026-01-30T02:13:41.000Z</time></trkpt>
        <trkpt lat="28.2803643" lon="105.0448179"><ele>400.45</ele><time>2026-01-30T02:13:46.000Z</time></trkpt>
        <trkpt lat="28.2803411" lon="105.0449364"><ele>402.19</ele><time>2026-01-30T02:13:49.000Z</time></trkpt>
        <trkpt lat="28.2803101" lon="105.0450448"><ele>403.37</ele><time>2026-01-30T02:13:58.000Z</time></trkpt>
        <trkpt lat="28.2803299" lon="105.0451531"><ele>404.52</ele><time>2026-01-30T02:14:05.000Z</time></trkpt>
        <trkpt lat="28.2802678" lon="105.0451567"><ele>406.64</ele><time>2026-01-30T02:14:13.000Z</time></trkpt>
        <trkpt lat="28.2801782" lon="105.0452026"><ele>408.82</ele><time>2026-01-30T02:14:23.000Z</time></trkpt>
        <trkpt lat="28.2801027" lon="105.0452702"><ele>409.12</ele><time>2026-01-30T02:14:28.000Z</time></trkpt>
        <trkpt lat="28.2800306" lon="105.0453579"><ele>409.69</ele><time>2026-01-30T02:14:37.000Z</time></trkpt>
        <trkpt lat="28.2799856" lon="105.0454169"><ele>410.8</ele><time>2026-01-30T02:14:41.000Z</time></trkpt>
        <trkpt lat="28.2799075" lon="105.045456"><ele>411.64</ele><time>2026-01-30T02:14:49.000Z</time></trkpt>
        <trkpt lat="28.2798214" lon="105.0455098"><ele>412.46</ele><time>2026-01-30T02:14:54.000Z</time></trkpt>
        <trkpt lat="28.2796995" lon="105.0455443"><ele>413.65</ele><time>2026-01-30T02:14:59.000Z</time></trkpt>
        <trkpt lat="28.2795868" lon="105.0455725"><ele>419.6</ele><time>2026-01-30T02:15:02.000Z</time></trkpt>
        <trkpt lat="28.2794912" lon="105.0455966"><ele>424.33</ele><time>2026-01-30T02:15:07.000Z</time></trkpt>
        <trkpt lat="28.2794201" lon="105.045659"><ele>427.56</ele><time>2026-01-30T02:15:18.000Z</time></trkpt>
        <trkpt lat="28.2793468" lon="105.0457293"><ele>427.47</ele><time>2026-01-30T02:15:27.000Z</time></trkpt>
        <trkpt lat="28.2792228" lon="105.045705"><ele>427.06</ele><time>2026-01-30T02:15:35.000Z</time></trkpt>
        <trkpt lat="28.2791138" lon="105.0456983"><ele>425.57</ele><time>2026-01-30T02:15:40.000Z</time></trkpt>
        <trkpt lat="28.2790216" lon="105.0457205"><ele>425.2</ele><time>2026-01-30T02:15:48.000Z</time></trkpt>
        <trkpt lat="28.2789362" lon="105.0457548"><ele>425.95</ele><time>2026-01-30T02:15:54.000Z</time></trkpt>
        <trkpt lat="28.2788557" lon="105.0458048"><ele>426.63</ele><time>2026-01-30T02:16:02.000Z</time></trkpt>
        <trkpt lat="28.2787552" lon="105.0458448"><ele>426.44</ele><time>2026-01-30T02:16:08.000Z</time></trkpt>
        <trkpt lat="28.2786557" lon="105.0458612"><ele>427.21</ele><time>2026-01-30T02:16:15.000Z</time></trkpt>
        <trkpt lat="28.2785545" lon="105.0458589"><ele>427.58</ele><time>2026-01-30T02:16:23.000Z</time></trkpt>
        <trkpt lat="28.2784554" lon="105.0458707"><ele>427.66</ele><time>2026-01-30T02:16:29.000Z</time></trkpt>
        <trkpt lat="28.2783501" lon="105.0458729"><ele>426.74</ele><time>2026-01-30T02:16:35.000Z</time></trkpt>
        <trkpt lat="28.2782426" lon="105.0458814"><ele>425.7</ele><time>2026-01-30T02:16:44.000Z</time></trkpt>
        <trkpt lat="28.2781551" lon="105.0459216"><ele>424.69</ele><time>2026-01-30T02:16:48.000Z</time></trkpt>
        <trkpt lat="28.2780911" lon="105.0459995"><ele>423.57</ele><time>2026-01-30T02:16:56.000Z</time></trkpt>
        <trkpt lat="28.2780361" lon="105.0460988"><ele>422.48</ele><time>2026-01-30T02:17:04.000Z</time></trkpt>
        <trkpt lat="28.2779951" lon="105.0461996"><ele>420.95</ele><time>2026-01-30T02:17:11.000Z</time></trkpt>
        <trkpt lat="28.2779891" lon="105.0463171"><ele>419.44</ele><time>2026-01-30T02:17:20.000Z</time></trkpt>
        <trkpt lat="28.2779893" lon="105.0464439"><ele>411.39</ele><time>2026-01-30T02:17:32.000Z</time></trkpt>
        <trkpt lat="28.2779685" lon="105.0465686"><ele>413.74</ele><time>2026-01-30T02:17:37.000Z</time></trkpt>
        <trkpt lat="28.2779665" lon="105.046692"><ele>416.97</ele><time>2026-01-30T02:17:42.000Z</time></trkpt>
        <trkpt lat="28.2779546" lon="105.0467227"><ele>419.83</ele><time>2026-01-30T02:17:51.000Z</time></trkpt>
        <trkpt lat="28.2779101" lon="105.0467946"><ele>420.57</ele><time>2026-01-30T02:18:02.000Z</time></trkpt>
        <trkpt lat="28.2778566" lon="105.0468834"><ele>421.4</ele><time>2026-01-30T02:18:08.000Z</time></trkpt>
        <trkpt lat="28.2778044" lon="105.0469874"><ele>422.17</ele><time>2026-01-30T02:18:16.000Z</time></trkpt>
        <trkpt lat="28.2777346" lon="105.04708"><ele>422.79</ele><time>2026-01-30T02:18:28.000Z</time></trkpt>
        <trkpt lat="28.2776403" lon="105.0471411"><ele>425.73</ele><time>2026-01-30T02:18:35.000Z</time></trkpt>
        <trkpt lat="28.2775401" lon="105.0471661"><ele>428.61</ele><time>2026-01-30T02:18:42.000Z</time></trkpt>
        <trkpt lat="28.2774319" lon="105.0471289"><ele>430.76</ele><time>2026-01-30T02:18:53.000Z</time></trkpt>
        <trkpt lat="28.2773335" lon="105.0470727"><ele>432.02</ele><time>2026-01-30T02:19:04.000Z</time></trkpt>
        <trkpt lat="28.2772487" lon="105.0469976"><ele>432.44</ele><time>2026-01-30T02:19:09.000Z</time></trkpt>
        <trkpt lat="28.277188" lon="105.0469841"><ele>431.86</ele><time>2026-01-30T02:19:22.000Z</time></trkpt>
        <trkpt lat="28.2771046" lon="105.0469934"><ele>429.85</ele><time>2026-01-30T02:19:33.000Z</time></trkpt>
        <trkpt lat="28.2771046" lon="105.0469934"><ele>429.85</ele><time>2026-01-30T02:19:45.000Z</time></trkpt>
      </trkseg>
  </trk>
</gpx>